<?xml version="1.0" encoding="UTF-8" standalone="yes"?>
<gpx xmlns="http://www.topografix.com/GPX/1/1" xmlns:gpxtrx="http://www.garmin.com/xmlschemas/GpxExtensions/v3" xmlns:rcxx="http://www.routeconverter.de/xmlschemas/RouteCatalogExtensions/1.0" xmlns:xsi="http://www.w3.org/2001/XMLSchema-instance" xmlns:gpxtpx="http://www.garmin.com/xmlschemas/TrackPointExtension/v1" xmlns:gpxx="http://www.garmin.com/xmlschemas/WaypointExtension/v1" xmlns:nmea="http://trekbuddy.net/2009/01/gpx/nmea" creator="Generated by Christian Pesch's RouteConverter. See http://www.routeconverter.com" version="1.1">
    <trk>
        <name>Neue Positionsliste 1</name>
        <trkseg>
            <trkpt lon="11.404314041137695" lat="53.596333315494896">
                <ele>44.0</ele>
                <time>2012-05-25T09:39:33.515Z</time>
                <name>1 Dorfstraße 6, 19061 Schwerin, Deutschland</name>
            </trkpt>
            <trkpt lon="11.404174566268921" lat="53.59630147925">
                <ele>44.0</ele>
                <time>2012-05-25T09:39:39.093Z</time>
                <name>2 Dorfstraße 9, 19061 Schwerin, Deutschland</name>
            </trkpt>
            <trkpt lon="11.40392780303955" lat="53.5967662860434">
                <ele>44.0</ele>
                <time>2012-05-25T09:40:09.687Z</time>
                <name>3 Dorfstraße 8, 19061 Schwerin, Deutschland</name>
            </trkpt>
            <trkpt lon="11.402769088745117" lat="53.59787416106674">
                <ele>44.0</ele>
                <time>2012-05-25T09:41:31.582Z</time>
                <name>4 Dorfstraße 15, 19061 Schwerin, Deutschland</name>
            </trkpt>
            <trkpt lon="11.402157545089722" lat="53.59795693217219">
                <ele>44.0</ele>
                <time>2012-05-25T09:41:54.998Z</time>
                <name>5 Görrieser Weg 1, 19061 Schwerin, Deutschland</name>
            </trkpt>
            <trkpt lon="11.397286653518677" lat="53.59824344628495">
                <ele>44.0</ele>
                <time>2012-05-25T09:44:57.742Z</time>
                <name>6 Görrieser Weg 18, 19061 Schwerin, Deutschland</name>
            </trkpt>
            <trkpt lon="11.394003629684448" lat="53.601337674883744">
                <ele>41.0</ele>
                <time>2012-05-25T09:48:47.392Z</time>
                <name>7 Zum Schulacker 2, 19061 Schwerin, Deutschland</name>
            </trkpt>
            <trkpt lon="11.391417980194092" lat="53.603387635669684">
                <ele>39.0</ele>
                <time>2012-05-25T09:51:28.239Z</time>
                <name>8 B106, 19061 Schwerin, Deutschland</name>
            </trkpt>
            <trkpt lon="11.388800144195557" lat="53.60538656994008">
                <ele>41.0</ele>
                <time>2012-05-25T09:54:07.268Z</time>
                <name>9 Schulzenweg 41, 19061 Schwerin, Deutschland</name>
            </trkpt>
            <trkpt lon="11.389669179916382" lat="53.60587037420562">
                <ele>42.0</ele>
                <time>2012-05-25T09:54:51.702Z</time>
                <name>10 Schulzenweg 41, 19061 Schwerin, Deutschland</name>
            </trkpt>
            <trkpt lon="11.39022707939148" lat="53.60638600159807">
                <ele>41.0</ele>
                <time>2012-05-25T09:55:30.186Z</time>
                <name>11 Schulzenweg 41, 19061 Schwerin, Deutschland</name>
            </trkpt>
            <trkpt lon="11.390538215637207" lat="53.60709895749863">
                <ele>41.0</ele>
                <time>2012-05-25T09:56:16.416Z</time>
                <name>12 Schulzenweg 39-41, 19061 Schwerin, Deutschland</name>
            </trkpt>
            <trkpt lon="11.39046311378479" lat="53.60743633422041">
                <ele>42.0</ele>
                <time>2012-05-25T09:56:37.775Z</time>
                <name>13 Schulzenweg 25-39, 19061 Schwerin, Deutschland</name>
            </trkpt>
            <trkpt lon="11.39021635055542" lat="53.607735515096195">
                <ele>42.0</ele>
                <time>2012-05-25T09:56:58.689Z</time>
                <name>14 Schulzenweg 27, 19061 Schwerin, Deutschland</name>
            </trkpt>
            <trkpt lon="11.38995885848999" lat="53.60790738400248">
                <ele>41.0</ele>
                <time>2012-05-25T09:57:13.136Z</time>
                <name>15 Schulzenweg 23, 19061 Schwerin, Deutschland</name>
            </trkpt>
            <trkpt lon="11.389186382293701" lat="53.60830204328814">
                <ele>42.0</ele>
                <time>2012-05-25T09:57:51.146Z</time>
                <name>16 Schulzenweg 23, 19061 Schwerin, Deutschland</name>
            </trkpt>
            <trkpt lon="11.387566328048706" lat="53.60923775298422">
                <ele>44.0</ele>
                <time>2012-05-25T09:59:15.435Z</time>
                <name>17 Schulzenweg 15, 19061 Schwerin, Deutschland</name>
            </trkpt>
            <trkpt lon="11.386128664016724" lat="53.610116155463245">
                <ele>45.0</ele>
                <time>2012-05-25T10:00:32.364Z</time>
                <name>18 Schulzenweg 5, 19061 Schwerin, Deutschland</name>
            </trkpt>
            <trkpt lon="11.384937763214111" lat="53.610956349432215">
                <ele>45.0</ele>
                <time>2012-05-25T10:01:41.326Z</time>
                <name>19 Breite Straße 1, 19061 Schwerin, Deutschland</name>
            </trkpt>
            <trkpt lon="11.382545232772827" lat="53.61248393199976">
                <ele>45.0</ele>
                <time>2012-05-25T10:03:52.334Z</time>
                <name>20 Breite Straße 12, 19061 Schwerin, Deutschland</name>
            </trkpt>
            <trkpt lon="11.382277011871338" lat="53.61255394487625">
                <ele>45.0</ele>
                <time>2012-05-25T10:04:03.265Z</time>
                <name>21 An der Hollenbäk 1, 19061 Schwerin, Deutschland</name>
            </trkpt>
            <trkpt lon="11.3822340965271" lat="53.6158889692346">
                <ele>46.0</ele>
                <time>2012-05-25T10:07:32.558Z</time>
                <name>22 Lilienthalstraße 49, 19061 Schwerin, Deutschland</name>
            </trkpt>
            <trkpt lon="11.382513046264648" lat="53.616232639978094">
                <ele>45.0</ele>
                <time>2012-05-25T10:07:56.505Z</time>
                <name>23 Lilienthalstraße 108, 19061 Schwerin, Deutschland</name>
            </trkpt>
            <trkpt lon="11.383146047592163" lat="53.61669722746171">
                <ele>45.0</ele>
                <time>2012-05-25T10:08:34.026Z</time>
                <name>24 Lilienthalstraße 51, 19061 Schwerin, Deutschland</name>
            </trkpt>
            <trkpt lon="11.38322114944458" lat="53.61735273261241">
                <ele>42.0</ele>
                <time>2012-05-25T10:09:15.256Z</time>
                <name>25 Lilienthalstraße 51, 19061 Schwerin, Deutschland</name>
            </trkpt>
            <trkpt lon="11.382920742034912" lat="53.617791851728995">
                <ele>40.0</ele>
                <time>2012-05-25T10:09:45.004Z</time>
                <name>26 Lilienthalstraße 51, 19061 Schwerin, Deutschland</name>
            </trkpt>
            <trkpt lon="11.38245940208435" lat="53.61814187094167">
                <ele>38.0</ele>
                <time>2012-05-25T10:10:12.909Z</time>
                <name>27 Lilienthalstraße 51, 19061 Schwerin, Deutschland</name>
            </trkpt>
            <trkpt lon="11.381794214248657" lat="53.618498251158236">
                <ele>39.0</ele>
                <time>2012-05-25T10:10:46.316Z</time>
                <name>28 Schweriner Seenlandschaft (Stadt Schwerin), Lilienthalstraße 53, 19061 Schwerin, Deutschland</name>
            </trkpt>
            <trkpt lon="11.381751298904419" lat="53.61874644274609">
                <ele>40.0</ele>
                <time>2012-05-25T10:11:01.972Z</time>
                <name>29 Schweriner Seenlandschaft (Stadt Schwerin), Lilienthalstraße 53, 19061 Schwerin, Deutschland</name>
            </trkpt>
            <trkpt lon="11.381847858428955" lat="53.61912190929769">
                <ele>42.0</ele>
                <time>2012-05-25T10:11:25.806Z</time>
                <name>30 Lilienthalstraße 53, 19061 Schwerin, Deutschland</name>
            </trkpt>
            <trkpt lon="11.382684707641602" lat="53.619548282518586">
                <ele>43.0</ele>
                <time>2012-05-25T10:12:06.922Z</time>
                <name>31 Lilienthalstraße 52-53, 19061 Schwerin, Deutschland</name>
            </trkpt>
            <trkpt lon="11.382749080657959" lat="53.619828286470124">
                <ele>45.0</ele>
                <time>2012-05-25T10:12:24.655Z</time>
                <name>32 Lilienthalstraße 52-53, 19061 Schwerin, Deutschland</name>
            </trkpt>
            <trkpt lon="11.382384300231934" lat="53.62047737939603">
                <ele>44.0</ele>
                <time>2012-05-25T10:13:07.597Z</time>
                <name>33 Lilienthalstraße 52, 19061 Schwerin, Deutschland</name>
            </trkpt>
            <trkpt lon="11.38170838356018" lat="53.62092282955017">
                <ele>43.0</ele>
                <time>2012-05-25T10:13:45.240Z</time>
                <name>34 Lilienthalstraße 52, 19061 Schwerin, Deutschland</name>
            </trkpt>
            <trkpt lon="11.380892992019653" lat="53.62128554977467">
                <ele>44.0</ele>
                <time>2012-05-25T10:14:23.229Z</time>
                <name>35 Lilienthalstraße 52, 19061 Schwerin, Deutschland</name>
            </trkpt>
            <trkpt lon="11.380259990692139" lat="53.6216164497168">
                <ele>46.0</ele>
                <time>2012-05-25T10:14:54.671Z</time>
                <name>36 Lilienthalstraße 52, 19061 Schwerin, Deutschland</name>
            </trkpt>
            <trkpt lon="11.37972354888916" lat="53.6220300709965">
                <ele>46.0</ele>
                <time>2012-05-25T10:15:27.441Z</time>
                <name>37 Lilienthalstraße 52, 19061 Schwerin, Deutschland</name>
            </trkpt>
            <trkpt lon="11.378597021102905" lat="53.62228460515396">
                <ele>50.0</ele>
                <time>2012-05-25T10:16:12.393Z</time>
                <name>38 Lilienthalstraße 52, 19061 Schwerin, Deutschland</name>
            </trkpt>
            <trkpt lon="11.377770900726318" lat="53.622717309698935">
                <ele>52.0</ele>
                <time>2012-05-25T10:16:53.460Z</time>
                <name>39 Lilienthalstraße 52, 19061 Schwerin, Deutschland</name>
            </trkpt>
            <trkpt lon="11.377309560775757" lat="53.6232645473295">
                <ele>53.0</ele>
                <time>2012-05-25T10:17:31.864Z</time>
                <name>40 Lilienthalstraße 52, 19061 Schwerin, Deutschland</name>
            </trkpt>
            <trkpt lon="11.376762390136719" lat="53.62402812286353">
                <ele>54.0</ele>
                <time>2012-05-25T10:18:23.936Z</time>
                <name>41 Lilienthalstraße 52, 19061 Schwerin, Deutschland</name>
            </trkpt>
            <trkpt lon="11.376150846481323" lat="53.624651699302035">
                <ele>56.0</ele>
                <time>2012-05-25T10:19:09.222Z</time>
                <name>42 Neumühler Straße 2A, 19057 Schwerin, Deutschland</name>
            </trkpt>
            <trkpt lon="11.375614404678345" lat="53.62516073446223">
                <ele>59.0</ele>
                <time>2012-05-25T10:19:46.907Z</time>
                <name>43 Neumühler Straße 2A, 19057 Schwerin, Deutschland</name>
            </trkpt>
            <trkpt lon="11.375442743301392" lat="53.626178786363724">
                <ele>60.0</ele>
                <time>2012-05-25T10:20:51.096Z</time>
                <name>44 Neumühler Straße 2A, 19057 Schwerin, Deutschland</name>
            </trkpt>
            <trkpt lon="11.375120878219604" lat="53.62666871508805">
                <ele>63.0</ele>
                <time>2012-05-25T10:21:24.093Z</time>
                <name>45 Neumühler Straße 2B, 19057 Schwerin, Deutschland</name>
            </trkpt>
            <trkpt lon="11.374874114990234" lat="53.627298615090446">
                <ele>66.0</ele>
                <time>2012-05-25T10:22:04.667Z</time>
                <name>46 Neumühler Straße 2B, 19057 Schwerin, Deutschland</name>
            </trkpt>
            <trkpt lon="11.375077962875366" lat="53.62879379462025">
                <ele>70.0</ele>
                <time>2012-05-25T10:23:38.774Z</time>
                <name>47 Neumühler Straße 20, 19057 Schwerin, Deutschland</name>
            </trkpt>
            <trkpt lon="11.372202634811401" lat="53.62813210468217">
                <ele>70.0</ele>
                <time>2012-05-25T10:25:33.752Z</time>
                <name>48 Neumühler Straße 39, 19057 Schwerin, Deutschland</name>
            </trkpt>
            <trkpt lon="11.368554830551147" lat="53.62711409990182">
                <ele>63.0</ele>
                <time>2012-05-25T10:28:04.029Z</time>
                <name>49 An den Wadehängen 1B, 19057 Schwerin, Deutschland</name>
            </trkpt>
            <trkpt lon="11.368082761764526" lat="53.62694867180542">
                <ele>63.0</ele>
                <time>2012-05-25T10:28:24.464Z</time>
                <name>50 Neumühler Straße 75, 19057 Schwerin, Deutschland</name>
            </trkpt>
            <trkpt lon="11.367911100387573" lat="53.62685959486954">
                <ele>62.0</ele>
                <time>2012-05-25T10:28:32.961Z</time>
                <name>51 Neumühler Straße 77, 19057 Schwerin, Deutschland</name>
            </trkpt>
            <trkpt lon="11.366119384765625" lat="53.62635058020031">
                <ele>59.0</ele>
                <time>2012-05-25T10:29:47.012Z</time>
                <name>52 Neumühler Straße 48, 19057 Schwerin, Deutschland</name>
            </trkpt>
            <trkpt lon="11.365883350372314" lat="53.626210600089934">
                <ele>58.0</ele>
                <time>2012-05-25T10:29:59.444Z</time>
                <name>53 Neumühler Straße 48, 19057 Schwerin, Deutschland</name>
            </trkpt>
            <trkpt lon="11.365700960159302" lat="53.62622332557369">
                <ele>57.0</ele>
                <time>2012-05-25T10:30:06.291Z</time>
                <name>54 Neumühler Straße 103, 19057 Schwerin, Deutschland</name>
            </trkpt>
            <trkpt lon="11.364456415176392" lat="53.625841559391496">
                <ele>49.0</ele>
                <time>2012-05-25T10:30:58.507Z</time>
                <name>55 Neumühler Straße 111, 19057 Schwerin, Deutschland</name>
            </trkpt>
            <trkpt lon="11.363952159881592" lat="53.62579701977862">
                <ele>47.0</ele>
                <time>2012-05-25T10:31:17.514Z</time>
                <name>56 Neumühler Straße 82, 19057 Schwerin, Deutschland</name>
            </trkpt>
            <trkpt lon="11.363898515701294" lat="53.62593700126084">
                <ele>48.0</ele>
                <time>2012-05-25T10:31:29.499Z</time>
                <name>57 Neumühler Straße 115, 19057 Schwerin, Deutschland</name>
            </trkpt>
            <trkpt lon="11.362954378128052" lat="53.62592427569072">
                <ele>47.0</ele>
                <time>2012-05-25T10:32:16.364Z</time>
                <name>58 Neumühler Straße 115, 19057 Schwerin, Deutschland</name>
            </trkpt>
            <trkpt lon="11.362299919128418" lat="53.625822470991714">
                <ele>46.0</ele>
                <time>2012-05-25T10:32:49.935Z</time>
                <name>59 Neumühler Straße 115, 19057 Schwerin, Deutschland</name>
            </trkpt>
            <trkpt lon="11.361806392669678" lat="53.62566340065793">
                <ele>46.0</ele>
                <time>2012-05-25T10:33:17.794Z</time>
                <name>60 Schweriner Seenlandschaft (Stadt Schwerin), Neumühler Straße 113, 19057 Schwerin, Deutschland</name>
            </trkpt>
            <trkpt lon="11.361334323883057" lat="53.62561249802448">
                <ele>45.0</ele>
                <time>2012-05-25T10:33:41.602Z</time>
                <name>61 Schweriner Seenlandschaft (Stadt Schwerin), Neumühler Straße 113, 19057 Schwerin, Deutschland</name>
            </trkpt>
            <trkpt lon="11.361302137374878" lat="53.62596881516928">
                <ele>46.0</ele>
                <time>2012-05-25T10:34:11.388Z</time>
                <name>62 B106, 19057 Schwerin, Deutschland</name>
            </trkpt>
            <trkpt lon="11.361345052719116" lat="53.62619151185707">
                <ele>47.0</ele>
                <time>2012-05-25T10:34:30.098Z</time>
                <name>63 Schweriner Seenlandschaft (Stadt Schwerin), Neumühler Straße 113, 19057 Schwerin, Deutschland</name>
            </trkpt>
            <trkpt lon="11.360368728637695" lat="53.62664962706241">
                <ele>45.0</ele>
                <time>2012-05-25T10:35:31.815Z</time>
                <name>64 Schweriner Seenlandschaft (Stadt Schwerin), Neumühler Straße 115, 19057 Schwerin, Deutschland</name>
            </trkpt>
            <trkpt lon="11.36001467704773" lat="53.62695503443652">
                <ele>46.0</ele>
                <time>2012-05-25T10:36:02.774Z</time>
                <name>65 Schweriner Seenlandschaft (Stadt Schwerin), Neumühler Straße 115, 19057 Schwerin, Deutschland</name>
            </trkpt>
            <trkpt lon="11.359360218048096" lat="53.62752766730568">
                <ele>47.0</ele>
                <time>2012-05-25T10:37:00.558Z</time>
                <name>66 Schweriner Seenlandschaft (Stadt Schwerin), Neumühler Straße 115, 19057 Schwerin, Deutschland</name>
            </trkpt>
            <trkpt lon="11.35849118232727" lat="53.62839296445438">
                <ele>49.0</ele>
                <time>2012-05-25T10:38:24.674Z</time>
                <name>67 Schweriner Seenlandschaft (Stadt Schwerin), Neumühler Straße 115, 19057 Schwerin, Deutschland</name>
            </trkpt>
            <trkpt lon="11.357890367507935" lat="53.62887014279159">
                <ele>51.0</ele>
                <time>2012-05-25T10:39:14.422Z</time>
                <name>68 Schweriner Seenlandschaft (Stadt Schwerin), Neumühler Straße 115, 19057 Schwerin, Deutschland</name>
            </trkpt>
            <trkpt lon="11.356967687606812" lat="53.629563632355314">
                <ele>53.0</ele>
                <time>2012-05-25T10:40:28.219Z</time>
                <name>69 Schweriner Seenlandschaft (Stadt Schwerin), Neumühler Straße 115, 19057 Schwerin, Deutschland</name>
            </trkpt>
            <trkpt lon="11.356409788131714" lat="53.63011714336961">
                <ele>52.0</ele>
                <time>2012-05-25T10:41:22.075Z</time>
                <name>70 B106, 19057 Schwerin, Deutschland</name>
            </trkpt>
            <trkpt lon="11.355669498443604" lat="53.63081061243943">
                <ele>50.0</ele>
                <time>2012-05-25T10:42:30.624Z</time>
                <name>71 Schweriner Seenlandschaft (Stadt Schwerin), B106, 19057 Schwerin, Deutschland</name>
            </trkpt>
            <trkpt lon="11.35450005531311" lat="53.63177763284835">
                <ele>51.0</ele>
                <time>2012-05-25T10:44:10.023Z</time>
                <name>72 B106, 19057 Schwerin, Deutschland</name>
            </trkpt>
            <trkpt lon="11.3542640209198" lat="53.63211481238502">
                <ele>53.0</ele>
                <time>2012-05-25T10:44:40.504Z</time>
                <name>73 B106, 19057 Schwerin, Deutschland</name>
            </trkpt>
            <trkpt lon="11.351689100265503" lat="53.63390245510283">
                <ele>52.0</ele>
                <time>2012-05-25T10:47:56.916Z</time>
                <name>74 Sacktannen 30, 19057 Schwerin, Deutschland</name>
            </trkpt>
            <trkpt lon="11.351056098937988" lat="53.63456405455606">
                <ele>53.0</ele>
                <time>2012-05-25T10:49:00.439Z</time>
                <name>75 B106, 19057 Schwerin, Deutschland</name>
            </trkpt>
            <trkpt lon="11.35051965713501" lat="53.6349966332044">
                <ele>53.0</ele>
                <time>2012-05-25T10:49:45.290Z</time>
                <name>76 B106, 19057 Schwerin, Deutschland</name>
            </trkpt>
            <trkpt lon="11.350144147872925" lat="53.635193836704524">
                <ele>51.0</ele>
                <time>2012-05-25T10:50:10.146Z</time>
                <name>77 Sacktannen 30, 19057 Schwerin, Deutschland</name>
            </trkpt>
            <trkpt lon="11.349575519561768" lat="53.63531470291026">
                <ele>48.0</ele>
                <time>2012-05-25T10:50:40.101Z</time>
                <name>78 Sacktannen 30, 19057 Schwerin, Deutschland</name>
            </trkpt>
            <trkpt lon="11.349371671676636" lat="53.635480098209584">
                <ele>47.0</ele>
                <time>2012-05-25T10:50:57.211Z</time>
                <name>79 Sacktannen 30, 19057 Schwerin, Deutschland</name>
            </trkpt>
            <trkpt lon="11.348674297332764" lat="53.636879570940046">
                <ele>51.0</ele>
                <time>2012-05-25T10:52:59.018Z</time>
                <name>80 B106, 19057 Schwerin, Deutschland</name>
            </trkpt>
            <trkpt lon="11.347869634628296" lat="53.63841257641987">
                <ele>54.0</ele>
                <time>2012-05-25T10:55:13.034Z</time>
                <name>81 B106, 19057 Schwerin, Deutschland</name>
            </trkpt>
            <trkpt lon="11.347376108169556" lat="53.63888964144763">
                <ele>53.0</ele>
                <time>2012-05-25T10:55:59.769Z</time>
                <name>82 B106, 19057 Schwerin, Deutschland</name>
            </trkpt>
            <trkpt lon="11.346946954727173" lat="53.63991372282139">
                <ele>52.0</ele>
                <time>2012-05-25T10:57:27.842Z</time>
                <name>83 B106, 19057 Schwerin, Deutschland</name>
            </trkpt>
            <trkpt lon="11.34575605392456" lat="53.64081056869314">
                <ele>49.0</ele>
                <time>2012-05-25T10:59:03.182Z</time>
                <name>84 B106, 19057 Schwerin, Deutschland</name>
            </trkpt>
            <trkpt lon="11.345380544662476" lat="53.64117947848094">
                <ele>49.0</ele>
                <time>2012-05-25T10:59:39.162Z</time>
                <name>85 B106, 19057 Schwerin, Deutschland</name>
            </trkpt>
            <trkpt lon="11.344962120056152" lat="53.64147205981146">
                <ele>50.0</ele>
                <time>2012-05-25T11:00:11.204Z</time>
                <name>86 B106, 19057 Schwerin, Deutschland</name>
            </trkpt>
            <trkpt lon="11.344211101531982" lat="53.6416946746816">
                <ele>46.0</ele>
                <time>2012-05-25T11:00:52.822Z</time>
                <name>87 B106, 19057 Schwerin, Deutschland</name>
            </trkpt>
            <trkpt lon="11.343964338302612" lat="53.642095378486985">
                <ele>47.0</ele>
                <time>2012-05-25T11:01:28.428Z</time>
                <name>88 B106, 19057 Schwerin, Deutschland</name>
            </trkpt>
            <trkpt lon="11.343470811843872" lat="53.64259784295832">
                <ele>46.0</ele>
                <time>2012-05-25T11:02:16.976Z</time>
                <name>89 B106, 19057 Schwerin, Deutschland</name>
            </trkpt>
            <trkpt lon="11.343352794647217" lat="53.64313846260301">
                <ele>48.0</ele>
                <time>2012-05-25T11:03:02.466Z</time>
                <name>90 B106, 19057 Schwerin, Deutschland</name>
            </trkpt>
            <trkpt lon="11.343191862106323" lat="53.6434310303444">
                <ele>49.0</ele>
                <time>2012-05-25T11:03:28.150Z</time>
                <name>91 B106, 19057 Schwerin, Deutschland</name>
            </trkpt>
            <trkpt lon="11.342837810516357" lat="53.64362183429971">
                <ele>48.0</ele>
                <time>2012-05-25T11:03:51.849Z</time>
                <name>92 B106, 19057 Schwerin, Deutschland</name>
            </trkpt>
            <trkpt lon="11.34229063987732" lat="53.64420696104669">
                <ele>49.0</ele>
                <time>2012-05-25T11:04:47.704Z</time>
                <name>93 B106, 19057 Schwerin, Deutschland</name>
            </trkpt>
            <trkpt lon="11.341314315795898" lat="53.644715760314895">
                <ele>48.0</ele>
                <time>2012-05-25T11:05:52.090Z</time>
                <name>94 B106, 19057 Schwerin, Deutschland</name>
            </trkpt>
            <trkpt lon="11.33978009223938" lat="53.644925638224734">
                <ele>49.0</ele>
                <time>2012-05-25T11:07:10.146Z</time>
                <name>95 B106, 19057 Schwerin, Deutschland</name>
            </trkpt>
            <trkpt lon="11.339308023452759" lat="53.645256352811515">
                <ele>50.0</ele>
                <time>2012-05-25T11:07:46.329Z</time>
                <name>96 Schweriner Seenlandschaft (Stadt Schwerin), Wolfsschlucht 19, 19057 Schwerin, Deutschland</name>
            </trkpt>
            <trkpt lon="11.339136362075806" lat="53.645523466546024">
                <ele>51.0</ele>
                <time>2012-05-25T11:08:10.186Z</time>
                <name>97 Schweriner Seenlandschaft (Stadt Schwerin), Wolfsschlucht 19, 19057 Schwerin, Deutschland</name>
            </trkpt>
            <trkpt lon="11.33804202079773" lat="53.645981371868956">
                <ele>48.0</ele>
                <time>2012-05-25T11:09:16.543Z</time>
                <name>98 Schweriner Seenlandschaft (Stadt Schwerin), Wolfsschlucht 19, 19057 Schwerin, Deutschland</name>
            </trkpt>
            <trkpt lon="11.336218118667603" lat="53.64703071948122">
                <ele>51.0</ele>
                <time>2012-05-25T11:11:22.408Z</time>
                <name>99 Schweriner Seenlandschaft (Stadt Schwerin), Wolfsschlucht 19, 19057 Schwerin, Deutschland</name>
            </trkpt>
            <trkpt lon="11.335713863372803" lat="53.647176990105116">
                <ele>52.0</ele>
                <time>2012-05-25T11:11:50.226Z</time>
                <name>100 Schweriner Seenlandschaft (Stadt Schwerin), Wolfsschlucht 19, 19057 Schwerin, Deutschland</name>
            </trkpt>
            <trkpt lon="11.33725881576538" lat="53.64918656991505">
                <ele>54.0</ele>
                <time>2012-05-25T11:14:54.559Z</time>
                <name>101 Wolfsschlucht 28, 19057 Schwerin, Deutschland</name>
            </trkpt>
            <trkpt lon="11.338320970535278" lat="53.65047748363743">
                <ele>59.0</ele>
                <time>2012-05-25T11:16:54.446Z</time>
                <name>102 Warnitzer Straße 11, 19057 Schwerin, Deutschland</name>
            </trkpt>
            <trkpt lon="11.34053111076355" lat="53.653059192517325">
                <ele>59.0</ele>
                <time>2012-05-25T11:20:56.107Z</time>
                <name>103 Warnitzer Straße 30, 19057 Schwerin, Deutschland</name>
            </trkpt>
            <trkpt lon="11.340734958648682" lat="53.65313549677845">
                <ele>59.0</ele>
                <time>2012-05-25T11:21:08.049Z</time>
                <name>104 Brüsewitzer Straße 1, 19057 Schwerin, Deutschland</name>
            </trkpt>
            <trkpt lon="11.340724229812622" lat="53.65327538756519">
                <ele>60.0</ele>
                <time>2012-05-25T11:21:31.541Z</time>
                <name>105 Warnitzer Straße 30, 19057 Schwerin, Deutschland</name>
            </trkpt>
            <trkpt lon="11.341389417648315" lat="53.65411472253798">
                <ele>61.0</ele>
                <time>2012-05-25T11:24:07.171Z</time>
                <name>106 Warnitzer Straße, 19057 Schwerin, Deutschland</name>
            </trkpt>
            <trkpt lon="11.342097520828247" lat="53.65491589033319">
                <ele>62.0</ele>
                <time>2012-05-25T11:26:38.972Z</time>
                <name>107 Warnitzer Straße, 19057 Schwerin, Deutschland</name>
            </trkpt>
            <trkpt lon="11.342430114746094" lat="53.65497947442672">
                <ele>61.0</ele>
                <time>2012-05-25T11:27:13.791Z</time>
                <name>108 Pingelshäger Straße 1B, 19057 Schwerin, Deutschland</name>
            </trkpt>
            <trkpt lon="11.342247724533081" lat="53.65520837636934">
                <ele>62.0</ele>
                <time>2012-05-25T11:27:56.275Z</time>
                <name>109 Warnitzer Straße, 19057 Schwerin, Deutschland</name>
            </trkpt>
            <trkpt lon="11.343245506286621" lat="53.65639101660656">
                <ele>60.0</ele>
                <time>2012-05-25T11:31:38.191Z</time>
                <name>110 Warnitzer Straße, 19057 Schwerin, Deutschland</name>
            </trkpt>
            <trkpt lon="11.343846321105957" lat="53.65705862144424">
                <ele>59.0</ele>
                <time>2012-05-25T11:33:45.184Z</time>
                <name>111 Warnitzer Straße, 19057 Schwerin, Deutschland</name>
            </trkpt>
            <trkpt lon="11.345101594924927" lat="53.659175812564996">
                <ele>59.0</ele>
                <time>2012-05-25T11:40:01.735Z</time>
                <name>112 Warnitzer Straße, 19057 Schwerin, Deutschland</name>
            </trkpt>
            <trkpt lon="11.346464157104492" lat="53.6614581907823">
                <ele>60.0</ele>
                <time>2012-05-25T11:46:47.973Z</time>
                <name>113 Bahnhofstraße 54, 19057 Schwerin, Deutschland</name>
            </trkpt>
            <trkpt lon="11.34753704071045" lat="53.66327001863484">
                <ele>62.0</ele>
                <time>2012-05-25T11:52:10.165Z</time>
                <name>114 Zum Kirschenhof 2, 19057 Schwerin, Deutschland</name>
            </trkpt>
            <trkpt lon="11.348234415054321" lat="53.66438250591241">
                <ele>60.0</ele>
                <time>2012-05-25T11:55:29.303Z</time>
                <name>115 Bahnhofstraße 27B, 19057 Schwerin, Deutschland</name>
            </trkpt>
            <trkpt lon="11.34851336479187" lat="53.66484656335381">
                <ele>60.0</ele>
                <time>2012-05-25T11:56:51.962Z</time>
                <name>116 Bahnhofstraße 32, 19057 Schwerin, Deutschland</name>
            </trkpt>
            <trkpt lon="11.348577737808228" lat="53.66549496382327">
                <ele>59.0</ele>
                <time>2012-05-25T11:58:40.921Z</time>
                <name>117 Bahnhofstraße 26, 19057 Schwerin, Deutschland</name>
            </trkpt>
            <trkpt lon="11.35051965713501" lat="53.66831729669614">
                <ele>56.0</ele>
                <time>2012-05-25T12:07:12.372Z</time>
                <name>118 Bahnhofstraße 5, 19057 Schwerin, Deutschland</name>
            </trkpt>
            <trkpt lon="11.352440118789673" lat="53.66873046019589">
                <ele>56.0</ele>
                <time>2012-05-25T12:10:35.856Z</time>
                <name>119 Grevesmühlener Chaussee 5A, 19057 Schwerin, Deutschland</name>
            </trkpt>
            <trkpt lon="11.352579593658447" lat="53.66894657487429">
                <ele>56.0</ele>
                <time>2012-05-25T12:11:14.680Z</time>
                <name>120 Trebbower Straße 1A, 19057 Schwerin, Deutschland</name>
            </trkpt>
            <trkpt lon="11.352837085723877" lat="53.67007162455949">
                <ele>53.0</ele>
                <time>2012-05-25T12:14:25.139Z</time>
                <name>121 Trebbower Straße 1, 19057 Schwerin, Deutschland</name>
            </trkpt>
            <trkpt lon="11.353459358215332" lat="53.673008053389715">
                <ele>53.0</ele>
                <time>2012-05-25T12:22:41.601Z</time>
                <name>122 Trebbower Straße 2, 19057 Schwerin, Deutschland</name>
            </trkpt>
            <trkpt lon="11.355980634689331" lat="53.6753786572208">
                <ele>57.0</ele>
                <time>2012-05-25T12:30:31.921Z</time>
                <name>123 Trebbower Straße 3, 19057 Schwerin, Deutschland</name>
            </trkpt>
            <trkpt lon="11.356785297393799" lat="53.67641456285514">
                <ele>58.0</ele>
                <time>2012-05-25T12:33:43.282Z</time>
                <name>124 Trebbower Straße 4, 19057, Deutschland</name>
            </trkpt>
            <trkpt lon="11.356956958770752" lat="53.67701194470724">
                <ele>58.0</ele>
                <time>2012-05-25T12:35:24.938Z</time>
                <name>125 Trebbower Straße 7, 19057, Deutschland</name>
            </trkpt>
            <trkpt lon="11.35702133178711" lat="53.67861339468206">
                <ele>58.0</ele>
                <time>2012-05-25T12:39:53.650Z</time>
                <name>126 Trebbower Straße 8, Deutschland</name>
            </trkpt>
            <trkpt lon="11.360325813293457" lat="53.67937596850932">
                <ele>57.0</ele>
                <time>2012-05-25T12:45:46.735Z</time>
                <name>127 Trebbower Straße 8A, 19057 Schwerin, Deutschland</name>
            </trkpt>
            <trkpt lon="11.370882987976074" lat="53.683912997322295">
                <ele>56.0</ele>
                <time>2012-05-25T13:07:24.631Z</time>
                <name>128 Barner Stücker Weg 8, 19069 Klein Trebbow, Deutschland</name>
            </trkpt>
            <trkpt lon="11.371784210205078" lat="53.684065494002006">
                <ele>56.0</ele>
                <time>2012-05-25T13:08:57.949Z</time>
                <name>129 Barner Stücker Weg 8, 19069 Klein Trebbow, Deutschland</name>
            </trkpt>
            <trkpt lon="11.368286609649658" lat="53.6873948671969">
                <ele>52.0</ele>
                <time>2012-05-25T13:19:56.129Z</time>
                <name>130 Barner Stücker Weg 8, 19069 Klein Trebbow, Deutschland</name>
            </trkpt>
            <trkpt lon="11.367793083190918" lat="53.69006325871765">
                <ele>56.0</ele>
                <time>2012-05-25T13:27:26.426Z</time>
                <name>131 Barner Stücker Weg 1, 19069 Klein Trebbow, Deutschland</name>
            </trkpt>
            <trkpt lon="11.366698741912842" lat="53.690469855911324">
                <ele>56.0</ele>
                <time>2012-05-25T13:29:34.970Z</time>
                <name>132 Warnitzer Straße 6, 19069 Klein Trebbow, Deutschland</name>
            </trkpt>
            <trkpt lon="11.364917755126953" lat="53.69049526810556">
                <ele>59.0</ele>
                <time>2012-05-25T13:32:32.343Z</time>
                <name>133 Forstweg 1, 19069 Klein Trebbow, Deutschland</name>
            </trkpt>
            <trkpt lon="11.36399507522583" lat="53.69099080282726">
                <ele>60.0</ele>
                <time>2012-05-25T13:34:36.232Z</time>
                <name>134 Forstweg 2, 19069 Klein Trebbow, Deutschland</name>
            </trkpt>
            <trkpt lon="11.36000394821167" lat="53.69332863156353">
                <ele>72.0</ele>
                <time>2012-05-25T13:43:54.512Z</time>
                <name>135 Forstweg 15, 19069 Klein Trebbow, Deutschland</name>
            </trkpt>
            <trkpt lon="11.360433101654053" lat="53.69835960523985">
                <ele>63.0</ele>
                <time>2012-05-25T13:57:59.506Z</time>
                <name>136 Eschenweg 12, 19069 Klein Trebbow, Deutschland</name>
            </trkpt>
            <trkpt lon="11.36150598526001" lat="53.70219595377005">
                <ele>64.0</ele>
                <time>2012-05-25T14:08:51.830Z</time>
                <name>137 Eschenweg 12, 19069 Klein Trebbow, Deutschland</name>
            </trkpt>
            <trkpt lon="11.365110874176025" lat="53.705777923770846">
                <ele>61.0</ele>
                <time>2012-05-25T14:20:31.659Z</time>
                <name>138 Schweriner Außensee, NWM46, 19069 Klein Trebbow, Deutschland</name>
            </trkpt>
            <trkpt lon="11.362943649291992" lat="53.70736557890477">
                <ele>58.0</ele>
                <time>2012-05-25T14:26:14.368Z</time>
                <name>139 Pingelshagener Straße, 19069 Klein Trebbow, Deutschland</name>
            </trkpt>
            <trkpt lon="11.361849308013916" lat="53.7085213541631">
                <ele>55.0</ele>
                <time>2012-05-25T14:29:56.738Z</time>
                <name>140 Pingelshagener Straße 16-18, 19069 Klein Trebbow, Deutschland</name>
            </trkpt>
            <trkpt lon="11.360926628112793" lat="53.70890237201516">
                <ele>54.0</ele>
                <time>2012-05-25T14:31:48.616Z</time>
                <name>141 Pingelshagener Straße 5, 19069 Klein Trebbow, Deutschland</name>
            </trkpt>
            <trkpt lon="11.359724998474121" lat="53.71008350542929">
                <ele>47.0</ele>
                <time>2012-05-25T14:35:40.034Z</time>
                <name>142 Hufenweg 10-12, 19069 Klein Trebbow, Deutschland</name>
            </trkpt>
            <trkpt lon="11.360368728637695" lat="53.71082010948024">
                <ele>45.0</ele>
                <time>2012-05-25T14:37:59.213Z</time>
                <name>143 Vatersplaner Straße 12, 19069 Klein Trebbow, Deutschland</name>
            </trkpt>
            <trkpt lon="11.35948896408081" lat="53.713499715419374">
                <ele>54.0</ele>
                <time>2012-05-25T14:45:37.142Z</time>
                <name>144 Vatersplaner Straße 21, 19069 Klein Trebbow, Deutschland</name>
            </trkpt>
            <trkpt lon="11.359124183654785" lat="53.71395688232679">
                <ele>50.0</ele>
                <time>2012-05-25T14:47:01.984Z</time>
                <name>145 Vatersplaner Straße 21, 19069 Klein Trebbow, Deutschland</name>
            </trkpt>
            <trkpt lon="11.360089778900146" lat="53.71445214086988">
                <ele>52.0</ele>
                <time>2012-05-25T14:49:09.000Z</time>
                <name>146 Vatersplaner Straße 21, 19069 Klein Trebbow, Deutschland</name>
            </trkpt>
            <trkpt lon="11.361162662506104" lat="53.71556962590421">
                <ele>45.0</ele>
                <time>2012-05-25T14:52:44.715Z</time>
                <name>147 Vatersplaner Straße 21, 19069 Klein Trebbow, Deutschland</name>
            </trkpt>
            <trkpt lon="11.362621784210205" lat="53.71633153049773">
                <ele>44.0</ele>
                <time>2012-05-25T14:55:58.135Z</time>
                <name>148 Seestraße 55, 19069 Klein Trebbow, Deutschland</name>
            </trkpt>
            <trkpt lon="11.36398434638977" lat="53.71561407071793">
                <ele>45.0</ele>
                <time>2012-05-25T14:58:59.418Z</time>
                <name>149 Seestraße 55, 19069 Klein Trebbow, Deutschland</name>
            </trkpt>
            <trkpt lon="11.364542245864868" lat="53.71476326184445">
                <ele>49.0</ele>
                <time>2012-05-25T15:01:32.547Z</time>
                <name>150 Seestraße 55, 19069 Klein Trebbow, Deutschland</name>
            </trkpt>
            <trkpt lon="11.364928483963013" lat="53.71442039370248">
                <ele>50.0</ele>
                <time>2012-05-25T15:02:41.717Z</time>
                <name>151 Seestraße 55, 19069 Klein Trebbow, Deutschland</name>
            </trkpt>
            <trkpt lon="11.367449760437012" lat="53.71404577531538">
                <ele>60.0</ele>
                <time>2012-05-25T15:07:00.339Z</time>
                <name>152 Seestraße 55, 19069 Klein Trebbow, Deutschland</name>
            </trkpt>
            <trkpt lon="11.368597745895386" lat="53.71393148429582">
                <ele>60.0</ele>
                <time>2012-05-25T15:08:56.164Z</time>
                <name>153 Schweriner Außensee, Seestraße 63, 19069 Klein Trebbow, Deutschland</name>
            </trkpt>
            <trkpt lon="11.368941068649292" lat="53.7135441624203">
                <ele>58.0</ele>
                <time>2012-05-25T15:10:09.565Z</time>
                <name>154 Schweriner Außensee, Seestraße 63, 19069 Klein Trebbow, Deutschland</name>
            </trkpt>
            <trkpt lon="11.36898398399353" lat="53.71304254354386">
                <ele>56.0</ele>
                <time>2012-05-25T15:11:33.811Z</time>
                <name>155 Seestraße 55, 19069 Klein Trebbow, Deutschland</name>
            </trkpt>
            <trkpt lon="11.370335817337036" lat="53.71268696198337">
                <ele>50.0</ele>
                <time>2012-05-25T15:14:00.953Z</time>
                <name>156 Schweriner Außensee, Seestraße 63, 19069 Klein Trebbow, Deutschland</name>
            </trkpt>
            <trkpt lon="11.371060013771057" lat="53.71225835521469">
                <ele>51.0</ele>
                <time>2012-05-25T15:15:42.742Z</time>
                <name>157 Seestraße 38A, 19069 Klein Trebbow, Deutschland</name>
            </trkpt>
            <trkpt lon="11.37672483921051" lat="53.7137314742643">
                <ele>58.0</ele>
                <time>2012-05-25T15:25:58.186Z</time>
                <name>158 Zum Trebbower Hof, 19069 Klein Trebbow, Deutschland</name>
            </trkpt>
            <trkpt lon="11.375158429145813" lat="53.71484897844338">
                <ele>57.0</ele>
                <time>2012-05-25T15:30:01.959Z</time>
                <name>159 Schweriner Außensee, Zum Trebbower Hof, 19069 Klein Trebbow, Deutschland</name>
            </trkpt>
            <trkpt lon="11.374471783638" lat="53.71528073347088">
                <ele>56.0</ele>
                <time>2012-05-25T15:31:41.518Z</time>
                <name>160 Schweriner Außensee, Zum Trebbower Hof, 19069 Klein Trebbow, Deutschland</name>
            </trkpt>
            <trkpt lon="11.373184323310852" lat="53.716995011172926">
                <ele>58.0</ele>
                <time>2012-05-25T15:36:56.297Z</time>
                <name>161 Schweriner Außensee, Zum Trebbower Hof, 19069 Klein Trebbow, Deutschland</name>
            </trkpt>
            <trkpt lon="11.373184323310852" lat="53.71723627427819">
                <ele>58.0</ele>
                <time>2012-05-25T15:38:24.124Z</time>
                <name>162 Schweriner Außensee, Zum Trebbower Hof, 19069 Klein Trebbow, Deutschland</name>
            </trkpt>
            <trkpt lon="11.371832489967346" lat="53.71882349704886">
                <ele>56.0</ele>
                <time>2012-05-25T15:49:11.467Z</time>
                <name>163 Zum Trebbower Hof, 19069 Klein Trebbow, Deutschland</name>
            </trkpt>
            <trkpt lon="11.371274590492249" lat="53.71925521128081">
                <ele>55.0</ele>
                <time>2012-05-25T15:52:29.480Z</time>
                <name>164 Zum Trebbower Hof, 19069 Klein Trebbow, Deutschland</name>
            </trkpt>
            <trkpt lon="11.368699669837952" lat="53.72048684223455">
                <ele>59.0</ele>
                <time>2012-05-25T16:04:23.704Z</time>
                <name>165 Zum Hofe 1, 19069 Klein Trebbow, Deutschland</name>
            </trkpt>
            <trkpt lon="11.36700451374054" lat="53.721464502982435">
                <ele>58.0</ele>
                <time>2012-05-25T16:12:54.213Z</time>
                <name>166 Zum Hofe 1, 19069 Klein Trebbow, Deutschland</name>
            </trkpt>
            <trkpt lon="11.366661190986633" lat="53.72244214100295">
                <ele>57.0</ele>
                <time>2012-05-25T16:18:57.738Z</time>
                <name>167 Zum Hofe 1, 19069 Klein Trebbow, Deutschland</name>
            </trkpt>
            <trkpt lon="11.365438103675842" lat="53.73203956189769">
                <ele>55.0</ele>
                <time>2012-05-25T17:17:21.434Z</time>
                <name>168 Schweriner Außensee, Trebbower Waldeck, 19069 Klein Trebbow, Deutschland</name>
            </trkpt>
            <trkpt lon="11.36326014995575" lat="53.734159331690755">
                <ele>54.0</ele>
                <time>2012-05-25T17:32:25.012Z</time>
                <name>169 Schweriner Außensee, Trebbower Waldeck, 19069 Klein Trebbow, Deutschland</name>
            </trkpt>
            <trkpt lon="11.361050009727478" lat="53.737389553738076">
                <ele>51.0</ele>
                <time>2012-05-25T17:53:33.978Z</time>
                <name>170 Lübstorfer Straße 3, 19069 Alt Meteln, Deutschland</name>
            </trkpt>
            <trkpt lon="11.362176537513733" lat="53.73962327526408">
                <ele>52.0</ele>
                <time>2012-05-25T18:07:42.685Z</time>
                <name>171 Schweriner Außensee, Lübstorfer Straße 2, 19069 Alt Meteln, Deutschland</name>
            </trkpt>
            <trkpt lon="11.363024115562439" lat="53.74165382817925">
                <ele>50.0</ele>
                <time>2012-05-25T18:20:24.159Z</time>
                <name>172 Schweriner Außensee, Lübstorfer Straße 2, 19069 Alt Meteln, Deutschland</name>
            </trkpt>
            <trkpt lon="11.36722981929779" lat="53.74068932777773">
                <ele>56.0</ele>
                <time>2012-05-25T18:36:37.320Z</time>
                <name>173 Sandweg, 19069 Lübstorf, Deutschland</name>
            </trkpt>
            <trkpt lon="11.374933123588562" lat="53.73888082986062">
                <ele>57.0</ele>
                <time>2012-05-25T19:06:25.402Z</time>
                <name>174 Alt Meteler Straße, 19069 Lübstorf, Deutschland</name>
            </trkpt>
            <trkpt lon="11.376038193702698" lat="53.738493737739184">
                <ele>55.0</ele>
                <time>2012-05-25T19:11:02.414Z</time>
                <name>175 Alt Meteler Straße, 19069 Lübstorf, Deutschland</name>
            </trkpt>
            <trkpt lon="11.381402611732483" lat="53.73545398880313">
                <ele>59.0</ele>
                <time>2012-05-25T19:37:43.950Z</time>
                <name>176 Alt Meteler Straße, 19069 Lübstorf, Deutschland</name>
            </trkpt>
            <trkpt lon="11.3819819688797" lat="53.73504782615854">
                <ele>60.0</ele>
                <time>2012-05-25T19:40:57.591Z</time>
                <name>177 Alt Meteler Straße, 19069 Lübstorf, Deutschland</name>
            </trkpt>
            <trkpt lon="11.38221800327301" lat="53.73477493342742">
                <ele>61.0</ele>
                <time>2012-05-25T19:42:49.232Z</time>
                <name>178 Alt Meteler Straße, 19069 Lübstorf, Deutschland</name>
            </trkpt>
            <trkpt lon="11.385125517845154" lat="53.733283511621245">
                <ele>58.0</ele>
                <time>2012-05-25T19:56:39.043Z</time>
                <name>179 Alt Meteler Straße, 19069 Lübstorf, Deutschland</name>
            </trkpt>
            <trkpt lon="11.386058926582336" lat="53.73273135480785">
                <ele>55.0</ele>
                <time>2012-05-25T20:01:23.632Z</time>
                <name>180 Weg zum See 15, 19069 Lübstorf, Deutschland</name>
            </trkpt>
            <trkpt lon="11.387646794319153" lat="53.732642501309876">
                <ele>56.0</ele>
                <time>2012-05-25T20:07:07.890Z</time>
                <name>181 Alt Meteler Straße, 19069 Lübstorf, Deutschland</name>
            </trkpt>
            <trkpt lon="11.388097405433655" lat="53.732483833882064">
                <ele>58.0</ele>
                <time>2012-05-25T20:09:01.009Z</time>
                <name>182 Rosenweg 1, 19069 Lübstorf, Deutschland</name>
            </trkpt>
            <trkpt lon="11.391412615776062" lat="53.7313096763031">
                <ele>62.0</ele>
                <time>2012-05-25T20:22:54.521Z</time>
                <name>183 Drosselweg 1, 19069 Lübstorf, Deutschland</name>
            </trkpt>
            <trkpt lon="11.39247477054596" lat="53.73099867772121">
                <ele>60.0</ele>
                <time>2012-05-25T20:27:10.216Z</time>
                <name>184 Alt Meteler Straße, 19069 Lübstorf, Deutschland</name>
            </trkpt>
            <trkpt lon="11.395511031150818" lat="53.730509961015656">
                <ele>52.0</ele>
                <time>2012-05-25T20:38:29.319Z</time>
                <name>185 Alt Meteler Straße, 19069 Lübstorf, Deutschland</name>
            </trkpt>
            <trkpt lon="11.399137377738953" lat="53.72990064391922">
                <ele>50.0</ele>
                <time>2012-05-25T20:52:02.905Z</time>
                <name>186 Alt Meteler Straße, 19069 Lübstorf, Deutschland</name>
            </trkpt>
            <trkpt lon="11.400993466377258" lat="53.72990699101781">
                <ele>51.0</ele>
                <time>2012-05-25T20:58:43.562Z</time>
                <name>187 Alt Meteler Straße, 19069 Lübstorf, Deutschland</name>
            </trkpt>
            <trkpt lon="11.402409672737122" lat="53.729945073589334">
                <ele>51.0</ele>
                <time>2012-05-25T21:03:49.574Z</time>
                <name>188 Alt Meteler Straße, 19069 Lübstorf, Deutschland</name>
            </trkpt>
            <trkpt lon="11.404115557670593" lat="53.72978639598049">
                <ele>52.0</ele>
                <time>2012-05-25T21:10:02.304Z</time>
                <name>189 Bahnhofstraße 13-14, 19069 Lübstorf, Deutschland</name>
            </trkpt>
            <trkpt lon="11.407012343406677" lat="53.729221498831976">
                <ele>50.0</ele>
                <time>2012-05-25T21:21:00.544Z</time>
                <name>190 Bahnhofstraße 10, 19069 Lübstorf, Deutschland</name>
            </trkpt>
            <trkpt lon="11.411266228836098" lat="53.72855813113581">
                <ele>51.0</ele>
                <time>2012-05-25T21:36:52.040Z</time>
                <name>191 Bahnhofstraße, 19069 Lübstorf, Deutschland</name>
            </trkpt>
            <trkpt lon="11.413090229034424" lat="53.728171023842414">
                <ele>53.0</ele>
                <time>2012-05-25T21:43:51.124Z</time>
                <name>192 Alte Dorfstraße 1, 19069 Lübstorf, Deutschland</name>
            </trkpt>
            <trkpt lon="11.414517164230347" lat="53.73078605491825">
                <ele>58.0</ele>
                <time>2012-05-25T22:00:33.761Z</time>
                <name>193 Wiligrader Straße 1, 19069 Lübstorf, Deutschland</name>
            </trkpt>
            <trkpt lon="11.414999961853027" lat="53.73119860564572">
                <ele>57.0</ele>
                <time>2012-05-25T22:03:36.941Z</time>
                <name>194 Schweriner Außensee, Wiligrader Straße 2A, 19069 Lübstorf, Deutschland</name>
            </trkpt>
            <trkpt lon="11.423540115356445" lat="53.73416885137447">
                <ele>75.0</ele>
                <time>2012-05-25T22:39:18.511Z</time>
                <name>195 Schweriner Außensee, Wiligrader Straße 4, 19069 Lübstorf, Deutschland</name>
            </trkpt>
            <trkpt lon="11.423861980438232" lat="53.73447982650404">
                <ele>75.0</ele>
                <time>2012-05-25T22:41:31.609Z</time>
                <name>196 Schweriner Außensee, Wiligrader Straße 4, 19069 Lübstorf, Deutschland</name>
            </trkpt>
            <trkpt lon="11.42392635345459" lat="53.73488599463705">
                <ele>77.0</ele>
                <time>2012-05-25T22:44:00.426Z</time>
                <name>197 Schweriner Außensee, Wiligrader Straße 4, 19069 Lübstorf, Deutschland</name>
            </trkpt>
            <trkpt lon="11.424055099487305" lat="53.737119849215425">
                <ele>69.0</ele>
                <time>2012-05-25T22:57:35.781Z</time>
                <name>198 Schweriner Außensee, Wiligrader Straße 4, 19069 Lübstorf, Deutschland</name>
            </trkpt>
            <trkpt lon="11.424398422241211" lat="53.73720234725331">
                <ele>67.0</ele>
                <time>2012-05-25T22:58:55.900Z</time>
                <name>199 Schweriner Außensee, Wiligrader Straße 4, 19069 Lübstorf, Deutschland</name>
            </trkpt>
            <trkpt lon="11.42592191696167" lat="53.73712619522407">
                <ele>62.0</ele>
                <time>2012-05-25T23:04:26.563Z</time>
                <name>200 Schweriner Außensee, Wiligrader Straße 4, 19069 Lübstorf, Deutschland</name>
            </trkpt>
            <trkpt lon="11.4266836643219" lat="53.7369611986874">
                <ele>62.0</ele>
                <time>2012-05-25T23:07:21.960Z</time>
                <name>201 Schweriner Außensee, Wiligrader Straße 4, 19069 Lübstorf, Deutschland</name>
            </trkpt>
            <trkpt lon="11.427348852157593" lat="53.73685331598629">
                <ele>63.0</ele>
                <time>2012-05-25T23:09:51.109Z</time>
                <name>202 Schweriner Außensee, Wiligrader Straße 4, 19069 Lübstorf, Deutschland</name>
            </trkpt>
            <trkpt lon="11.428260803222656" lat="53.7369611986874">
                <ele>66.0</ele>
                <time>2012-05-25T23:13:12.229Z</time>
                <name>203 Schweriner Außensee, Wiligrader Straße 4, 19069 Lübstorf, Deutschland</name>
            </trkpt>
            <trkpt lon="11.428443193435669" lat="53.73705638907609">
                <ele>68.0</ele>
                <time>2012-05-25T23:14:04.781Z</time>
                <name>204 Schweriner Außensee, Wiligrader Straße 6, 19069 Lübstorf, Deutschland</name>
            </trkpt>
            <trkpt lon="11.429237127304077" lat="53.73804635633846">
                <ele>71.0</ele>
                <time>2012-05-25T23:20:44.644Z</time>
                <name>205 Schweriner Außensee, Wiligrader Straße 6, 19069 Lübstorf, Deutschland</name>
            </trkpt>
            <trkpt lon="11.42990231513977" lat="53.7386809384732">
                <ele>72.0</ele>
                <time>2012-05-25T23:25:17.186Z</time>
                <name>206 Schweriner Außensee, Wiligrader Straße 6, 19069 Lübstorf, Deutschland</name>
            </trkpt>
            <trkpt lon="11.431082487106323" lat="53.73932185670378">
                <ele>71.0</ele>
                <time>2012-05-25T23:31:03.308Z</time>
                <name>207 Schweriner Außensee, Wiligrader Straße 6, 19069 Lübstorf, Deutschland</name>
            </trkpt>
            <trkpt lon="11.432788372039795" lat="53.740026220911574">
                <ele>67.0</ele>
                <time>2012-05-25T23:38:32.879Z</time>
                <name>208 Wiligrader Straße 7, 19069 Lübstorf, Deutschland</name>
            </trkpt>
            <trkpt lon="11.432305574417114" lat="53.74058462738971">
                <ele>67.0</ele>
                <time>2012-05-25T23:42:21.773Z</time>
                <name>209 Wiligrader Straße 7, 19069 Lübstorf, Deutschland</name>
            </trkpt>
            <trkpt lon="11.43289566040039" lat="53.740070639880315">
                <ele>67.0</ele>
                <time>2012-05-25T23:46:08.570Z</time>
                <name>210 Wiligrader Straße 6, 19069 Lübstorf, Deutschland</name>
            </trkpt>
            <trkpt lon="11.433088779449463" lat="53.74008967656684">
                <ele>67.0</ele>
                <time>2012-05-25T23:46:50.906Z</time>
                <name>211 Wiligrader Straße 7, 19069 Lübstorf, Deutschland</name>
            </trkpt>
            <trkpt lon="11.43439769744873" lat="53.73970894119802">
                <ele>67.0</ele>
                <time>2012-05-25T23:52:06.201Z</time>
                <name>212 Wiligrader Straße 17, 19069 Lübstorf, Deutschland</name>
            </trkpt>
            <trkpt lon="11.43465518951416" lat="53.73977874294053">
                <ele>67.0</ele>
                <time>2012-05-25T23:53:07.430Z</time>
                <name>213 Wiligrader Straße 17, 19069 Lübstorf, Deutschland</name>
            </trkpt>
            <trkpt lon="11.435041427612305" lat="53.73946146135864">
                <ele>67.0</ele>
                <time>2012-05-25T23:55:30.158Z</time>
                <name>214 Wiligrader Straße 17, 19069 Lübstorf, Deutschland</name>
            </trkpt>
            <trkpt lon="11.435320377349854" lat="53.73945511570257">
                <ele>65.0</ele>
                <time>2012-05-25T23:56:30.526Z</time>
                <name>215 Wiligrader Straße 17, 19069 Lübstorf, Deutschland</name>
            </trkpt>
            <trkpt lon="11.43539547920227" lat="53.73929012830847">
                <ele>64.0</ele>
                <time>2012-05-25T23:57:32.860Z</time>
                <name>216 Wiligrader Straße 17, 19069 Lübstorf, Deutschland</name>
            </trkpt>
            <trkpt lon="11.435685157775879" lat="53.73930916534852">
                <ele>62.0</ele>
                <time>2012-05-25T23:58:35.886Z</time>
                <name>217 Elisabethquelle, Schweriner Außensee, Lübstorf, Deutschland</name>
            </trkpt>
            <trkpt lon="11.435931921005249" lat="53.73920763436851">
                <ele>59.0</ele>
                <time>2012-05-25T23:59:40.840Z</time>
                <name>218 Elisabethquelle, Schweriner Außensee, Lübstorf, Deutschland</name>
            </trkpt>
            <trkpt lon="11.43589973449707" lat="53.73913783167748">
                <ele>59.0</ele>
                <time>2012-05-26T00:00:07.235Z</time>
                <name>219 Elisabethquelle, Schweriner Außensee, Lübstorf, Deutschland</name>
            </trkpt>
            <trkpt lon="11.435256004333496" lat="53.73865555537178">
                <ele>58.0</ele>
                <time>2012-05-26T00:03:51.563Z</time>
                <name>220 Wiligrader Straße 17, 19069 Lübstorf, Deutschland</name>
            </trkpt>
            <trkpt lon="11.434590816497803" lat="53.738376340244294">
                <ele>59.0</ele>
                <time>2012-05-26T00:06:47.813Z</time>
                <name>221 Wiligrader Straße 17, 19069 Lübstorf, Deutschland</name>
            </trkpt>
            <trkpt lon="11.434000730514526" lat="53.73779252080177">
                <ele>56.0</ele>
                <time>2012-05-26T00:10:56.068Z</time>
                <name>222 Wiligrader Straße 17, 19069 Lübstorf, Deutschland</name>
            </trkpt>
            <trkpt lon="11.433206796646118" lat="53.737519645890025">
                <ele>59.0</ele>
                <time>2012-05-26T00:14:14.522Z</time>
                <name>223 Wiligrader Straße 17, 19069 Lübstorf, Deutschland</name>
            </trkpt>
            <trkpt lon="11.433357000350952" lat="53.73696754472002">
                <ele>53.0</ele>
                <time>2012-05-26T00:17:38.503Z</time>
                <name>224 Wiligrader Straße 17, 19069 Lübstorf, Deutschland</name>
            </trkpt>
            <trkpt lon="11.432638168334961" lat="53.736136206288336">
                <ele>54.0</ele>
                <time>2012-05-26T00:23:19.257Z</time>
                <name>225 Wiligrader Straße 17, 19069 Lübstorf, Deutschland</name>
            </trkpt>
            <trkpt lon="11.431061029434204" lat="53.73508273091554">
                <ele>53.0</ele>
                <time>2012-05-26T00:31:53.049Z</time>
                <name>226 Wiligrader Straße, 19069 Lübstorf, Deutschland</name>
            </trkpt>
            <trkpt lon="11.429752111434937" lat="53.7343021267117">
                <ele>48.0</ele>
                <time>2012-05-26T00:38:34.544Z</time>
                <name>227 Schweriner Außensee, Wiligrader Straße 4, 19069 Lübstorf, Deutschland</name>
            </trkpt>
            <trkpt lon="11.429440975189209" lat="53.73416885137447">
                <ele>47.0</ele>
                <time>2012-05-26T00:39:57.555Z</time>
                <name>228 Schweriner Außensee, Wiligrader Straße 4, 19069 Lübstorf, Deutschland</name>
            </trkpt>
            <trkpt lon="11.429312229156494" lat="53.73401018970779">
                <ele>47.0</ele>
                <time>2012-05-26T00:41:01.775Z</time>
                <name>229 Schweriner Außensee, Wiligrader Straße 4, 19069 Lübstorf, Deutschland</name>
            </trkpt>
            <trkpt lon="11.429376602172852" lat="53.73390229943235">
                <ele>46.0</ele>
                <time>2012-05-26T00:41:43.516Z</time>
                <name>230 Schweriner Außensee, Wiligrader Straße 4, 19069 Lübstorf, Deutschland</name>
            </trkpt>
            <trkpt lon="11.429247856140137" lat="53.733857873944345">
                <ele>46.0</ele>
                <time>2012-05-26T00:42:15.730Z</time>
                <name>231 Schweriner Außensee, Wiligrader Straße 4, 19069 Lübstorf, Deutschland</name>
            </trkpt>
            <trkpt lon="11.428571939468384" lat="53.733096286848394">
                <ele>49.0</ele>
                <time>2012-05-26T00:47:29.615Z</time>
                <name>232 Schweriner Außensee, Wiligrader Straße 4, 19069 Lübstorf, Deutschland</name>
            </trkpt>
            <trkpt lon="11.428389549255371" lat="53.73302012737989">
                <ele>50.0</ele>
                <time>2012-05-26T00:48:17.858Z</time>
                <name>233 Schweriner Außensee, Wiligrader Straße 4, 19069 Lübstorf, Deutschland</name>
            </trkpt>
            <trkpt lon="11.42815351486206" lat="53.73272183479982">
                <ele>49.0</ele>
                <time>2012-05-26T00:50:18.032Z</time>
                <name>234 Schweriner Außensee, Wiligrader Straße 4, 19069 Lübstorf, Deutschland</name>
            </trkpt>
            <trkpt lon="11.427305936813354" lat="53.732220444630286">
                <ele>52.0</ele>
                <time>2012-05-26T00:54:36.952Z</time>
                <name>235 Schweriner Außensee, Wiligrader Straße 4, 19069 Lübstorf, Deutschland</name>
            </trkpt>
            <trkpt lon="11.426694393157959" lat="53.731776169862805">
                <ele>53.0</ele>
                <time>2012-05-26T00:58:06.111Z</time>
                <name>236 Schweriner Außensee, Wiligrader Straße 4, 19069 Lübstorf, Deutschland</name>
            </trkpt>
            <trkpt lon="11.426082849502563" lat="53.731173218025546">
                <ele>57.0</ele>
                <time>2012-05-26T01:02:22.728Z</time>
                <name>237 Ausbau 2, 19069 Lübstorf, Deutschland</name>
            </trkpt>
            <trkpt lon="11.425771713256836" lat="53.73063372747242">
                <ele>57.0</ele>
                <time>2012-05-26T01:05:50.679Z</time>
                <name>238 Ausbau 2, 19069 Lübstorf, Deutschland</name>
            </trkpt>
            <trkpt lon="11.425621509552002" lat="53.72989747037016">
                <ele>56.0</ele>
                <time>2012-05-26T01:10:21.164Z</time>
                <name>239 Ausbau 2, 19069 Lübstorf, Deutschland</name>
            </trkpt>
            <trkpt lon="11.425642967224121" lat="53.729199283621085">
                <ele>53.0</ele>
                <time>2012-05-26T01:14:35.848Z</time>
                <name>240 Ausbau 2, 19069 Lübstorf, Deutschland</name>
            </trkpt>
            <trkpt lon="11.425825357437134" lat="53.72857090563349">
                <ele>52.0</ele>
                <time>2012-05-26T01:18:28.399Z</time>
                <name>241 Am Rethberg 18, 19069 Lübstorf, Deutschland</name>
            </trkpt>
            <trkpt lon="11.425868272781372" lat="53.72744107108277">
                <ele>50.0</ele>
                <time>2012-05-26T01:25:20.575Z</time>
                <name>242 Am Rethberg 18, 19069 Lübstorf, Deutschland</name>
            </trkpt>
            <trkpt lon="11.425460577011108" lat="53.72679997168478">
                <ele>52.0</ele>
                <time>2012-05-26T01:29:30.470Z</time>
                <name>243 Am Rethberg 18, 19069 Lübstorf, Deutschland</name>
            </trkpt>
            <trkpt lon="11.425342559814453" lat="53.726495287356016">
                <ele>53.0</ele>
                <time>2012-05-26T01:31:24.487Z</time>
                <name>244 Am Rethberg 18, 19069 Lübstorf, Deutschland</name>
            </trkpt>
            <trkpt lon="11.425374746322632" lat="53.72570817595446">
                <ele>51.0</ele>
                <time>2012-05-26T01:36:11.642Z</time>
                <name>245 Am Rethberg 18, 19069 Lübstorf, Deutschland</name>
            </trkpt>
            <trkpt lon="11.425739526748657" lat="53.72528287575923">
                <ele>49.0</ele>
                <time>2012-05-26T01:39:05.668Z</time>
                <name>246 Am Rethberg 18, 19069 Lübstorf, Deutschland</name>
            </trkpt>
            <trkpt lon="11.425868272781372" lat="53.724698874452486">
                <ele>47.0</ele>
                <time>2012-05-26T01:42:40.473Z</time>
                <name>247 Am See 20, 19069 Lübstorf, Deutschland</name>
            </trkpt>
            <trkpt lon="11.425760984420776" lat="53.72445130623323">
                <ele>47.0</ele>
                <time>2012-05-26T01:44:13.698Z</time>
                <name>248 Am See 20, 19069 Lübstorf, Deutschland</name>
            </trkpt>
            <trkpt lon="11.425750255584717" lat="53.724140256917316">
                <ele>45.0</ele>
                <time>2012-05-26T01:46:07.164Z</time>
                <name>249 Am See 20, 19069 Lübstorf, Deutschland</name>
            </trkpt>
            <trkpt lon="11.425836086273193" lat="53.723257880010394">
                <ele>42.0</ele>
                <time>2012-05-26T01:51:29.510Z</time>
                <name>250 Am Rethberg 6, 19069 Lübstorf, Deutschland</name>
            </trkpt>
            <trkpt lon="11.425943374633789" lat="53.7231182215366">
                <ele>41.0</ele>
                <time>2012-05-26T01:52:25.482Z</time>
                <name>251 Am See 20, 19069 Lübstorf, Deutschland</name>
            </trkpt>
            <trkpt lon="11.425750255584717" lat="53.722737332432544">
                <ele>39.0</ele>
                <time>2012-05-26T01:54:50.539Z</time>
                <name>252 Am Anglerheim, 19069 Lübstorf, Deutschland</name>
            </trkpt>
            <trkpt lon="11.425718069076538" lat="53.722496100882275">
                <ele>38.0</ele>
                <time>2012-05-26T01:56:18.792Z</time>
                <name>253 Am Anglerheim, 19069 Lübstorf, Deutschland</name>
            </trkpt>
            <trkpt lon="11.425621509552002" lat="53.72237548458821">
                <ele>38.0</ele>
                <time>2012-05-26T01:57:07.487Z</time>
                <name>254 Am Anglerheim, 19069 Lübstorf, Deutschland</name>
            </trkpt>
            <trkpt lon="11.425074338912964" lat="53.72222312666966">
                <ele>39.0</ele>
                <time>2012-05-26T01:59:18.234Z</time>
                <name>255 Am Anglerheim, 19069 Lübstorf, Deutschland</name>
            </trkpt>
            <trkpt lon="11.424849033355713" lat="53.722204081891014">
                <ele>39.0</ele>
                <time>2012-05-26T02:00:07.459Z</time>
                <name>256 Am Anglerheim, 19069 Lübstorf, Deutschland</name>
            </trkpt>
            <trkpt lon="11.424527168273926" lat="53.72141689016188">
                <ele>40.0</ele>
                <time>2012-05-26T02:05:02.860Z</time>
                <name>257 Am Anglerheim, 19069 Lübstorf, Deutschland</name>
            </trkpt>
            <trkpt lon="11.42444133758545" lat="53.72111216682695">
                <ele>41.0</ele>
                <time>2012-05-26T02:06:55.529Z</time>
                <name>258 Am Anglerheim, 19069 Lübstorf, Deutschland</name>
            </trkpt>
            <trkpt lon="11.424484252929688" lat="53.72025512060974">
                <ele>43.0</ele>
                <time>2012-05-26T02:12:08.221Z</time>
                <name>259 Am See 8, 19069 Lübstorf, Deutschland</name>
            </trkpt>
            <trkpt lon="11.424355506896973" lat="53.71956947106085">
                <ele>44.0</ele>
                <time>2012-05-26T02:16:19.814Z</time>
                <name>260 Alte Dorfstraße 70, 19069 Lübstorf, Deutschland</name>
            </trkpt>
            <trkpt lon="11.424527168273926" lat="53.71853462696424">
                <ele>41.0</ele>
                <time>2012-05-26T02:22:39.029Z</time>
                <name>261 Alte Dorfstraße 70, 19069 Lübstorf, Deutschland</name>
            </trkpt>
            <trkpt lon="11.424752473831177" lat="53.71817274295845">
                <ele>41.0</ele>
                <time>2012-05-26T02:24:59.714Z</time>
                <name>262 Alte Dorfstraße 82, 19069 Lübstorf, Deutschland</name>
            </trkpt>
            <trkpt lon="11.425052881240845" lat="53.71793148522479">
                <ele>41.0</ele>
                <time>2012-05-26T02:26:49.092Z</time>
                <name>263 Alte Dorfstraße 82, 19069 Lübstorf, Deutschland</name>
            </trkpt>
            <trkpt lon="11.425213813781738" lat="53.71761403873002">
                <ele>42.0</ele>
                <time>2012-05-26T02:28:49.979Z</time>
                <name>264 Schweriner Außensee, NWM42, 19069 Lübstorf, Deutschland</name>
            </trkpt>
            <trkpt lon="11.425267457962036" lat="53.717048978041376">
                <ele>43.0</ele>
                <time>2012-05-26T02:32:16.371Z</time>
                <name>265 Schweriner Außensee, NWM42, 19069 Lübstorf, Deutschland</name>
            </trkpt>
            <trkpt lon="11.4256751537323" lat="53.716356927081016">
                <ele>42.0</ele>
                <time>2012-05-26T02:36:43.712Z</time>
                <name>266 Schweriner Außensee, NWM42, 19069 Lübstorf, Deutschland</name>
            </trkpt>
            <trkpt lon="11.42566442489624" lat="53.716052167083674">
                <ele>43.0</ele>
                <time>2012-05-26T02:38:34.875Z</time>
                <name>267 Schweriner Außensee, NWM42, 19069 Lübstorf, Deutschland</name>
            </trkpt>
            <trkpt lon="11.425396203994751" lat="53.7156267692286">
                <ele>46.0</ele>
                <time>2012-05-26T02:41:20.503Z</time>
                <name>268 Schweriner Außensee, NWM42, 19069 Lübstorf, Deutschland</name>
            </trkpt>
            <trkpt lon="11.425224542617798" lat="53.71523311364956">
                <ele>49.0</ele>
                <time>2012-05-26T02:43:48.785Z</time>
                <name>269 Schweriner Außensee, NWM42, 19069 Lübstorf, Deutschland</name>
            </trkpt>
            <trkpt lon="11.425321102142334" lat="53.71470611734929">
                <ele>49.0</ele>
                <time>2012-05-26T02:47:02.099Z</time>
                <name>270 Schweriner Außensee, NWM42, 19069 Lübstorf, Deutschland</name>
            </trkpt>
            <trkpt lon="11.425621509552002" lat="53.7142553080457">
                <ele>47.0</ele>
                <time>2012-05-26T02:49:58.876Z</time>
                <name>271 Schweriner Außensee, NWM42, 19069, Deutschland</name>
            </trkpt>
            <trkpt lon="11.427488327026367" lat="53.71268061228627">
                <ele>43.0</ele>
                <time>2012-05-26T03:01:40.917Z</time>
                <name>272 NWM42, 19069 Seehof, Deutschland</name>
            </trkpt>
            <trkpt lon="11.428132057189941" lat="53.71236312616242">
                <ele>42.0</ele>
                <time>2012-05-26T03:04:42.021Z</time>
                <name>273 Hundorfer Straße 1, 19069 Seehof, Deutschland</name>
            </trkpt>
            <trkpt lon="11.42867922782898" lat="53.71171544704014">
                <ele>46.0</ele>
                <time>2012-05-26T03:09:06.215Z</time>
                <name>274 Hundorfer Straße 2-3, 19069 Seehof, Deutschland</name>
            </trkpt>
            <trkpt lon="11.429558992385864" lat="53.71105505806069">
                <ele>46.0</ele>
                <time>2012-05-26T03:14:13.171Z</time>
                <name>275 Hundorfer Straße 4-5, 19069 Seehof, Deutschland</name>
            </trkpt>
            <trkpt lon="11.42990231513977" lat="53.71092170902805">
                <ele>46.0</ele>
                <time>2012-05-26T03:15:41.949Z</time>
                <name>276 Hundorfer Straße 6-7, 19069 Seehof, Deutschland</name>
            </trkpt>
            <trkpt lon="11.430342197418213" lat="53.71062960967011">
                <ele>45.0</ele>
                <time>2012-05-26T03:18:04.788Z</time>
                <name>277 Hundorfer Straße 7A, 19069 Seehof, Deutschland</name>
            </trkpt>
            <trkpt lon="11.431018114089966" lat="53.709924752868176">
                <ele>45.0</ele>
                <time>2012-05-26T03:23:00.512Z</time>
                <name>278 Schweriner Außensee, Hundorfer Straße 9, 19069 Seehof, Deutschland</name>
            </trkpt>
            <trkpt lon="11.431350708007812" lat="53.709518343579084">
                <ele>45.0</ele>
                <time>2012-05-26T03:25:45.261Z</time>
                <name>279 Hundorfer Straße 9, 19069 Seehof, Deutschland</name>
            </trkpt>
            <trkpt lon="11.43193006515503" lat="53.70889602174706">
                <ele>44.0</ele>
                <time>2012-05-26T03:30:04.516Z</time>
                <name>280 Hundorfer Straße 9, 19069 Seehof, Deutschland</name>
            </trkpt>
            <trkpt lon="11.43265962600708" lat="53.70815303362746">
                <ele>42.0</ele>
                <time>2012-05-26T03:35:18.084Z</time>
                <name>281 Hundorfer Straße 10, 19069 Seehof, Deutschland</name>
            </trkpt>
            <trkpt lon="11.433947086334229" lat="53.70709885703004">
                <ele>41.0</ele>
                <time>2012-05-26T03:43:12.818Z</time>
                <name>282 Schweriner Außensee, Ringstraße 4E, 19069 Seehof, Deutschland</name>
            </trkpt>
            <trkpt lon="11.43416166305542" lat="53.70693374264054">
                <ele>42.0</ele>
                <time>2012-05-26T03:44:28.849Z</time>
                <name>283 Schweriner Außensee, Ringstraße 4E, 19069 Seehof, Deutschland</name>
            </trkpt>
            <trkpt lon="11.434440612792969" lat="53.70650190194317">
                <ele>43.0</ele>
                <time>2012-05-26T03:47:17.494Z</time>
                <name>284 Schweriner Außensee, Ringstraße 4E, 19069 Seehof, Deutschland</name>
            </trkpt>
            <trkpt lon="11.434612274169922" lat="53.70638123977966">
                <ele>42.0</ele>
                <time>2012-05-26T03:48:15.074Z</time>
                <name>285 Schweriner Außensee, Ringstraße 4E, 19069 Seehof, Deutschland</name>
            </trkpt>
            <trkpt lon="11.434987783432007" lat="53.70624152526335">
                <ele>41.0</ele>
                <time>2012-05-26T03:49:50.972Z</time>
                <name>286 Schweriner Außensee, Ringstraße 4E, 19069 Seehof, Deutschland</name>
            </trkpt>
            <trkpt lon="11.4351487159729" lat="53.706025601916565">
                <ele>41.0</ele>
                <time>2012-05-26T03:51:17.065Z</time>
                <name>287 Schweriner Außensee, Ringstraße 4E, 19069 Seehof, Deutschland</name>
            </trkpt>
            <trkpt lon="11.43517017364502" lat="53.70575887154667">
                <ele>42.0</ele>
                <time>2012-05-26T03:52:54.440Z</time>
                <name>288 Ringstraße 4A, 19069 Seehof, Deutschland</name>
            </trkpt>
            <trkpt lon="11.43541693687439" lat="53.70556834881876">
                <ele>42.0</ele>
                <time>2012-05-26T03:54:22.059Z</time>
                <name>289 Ringstraße 6, 19069 Seehof, Deutschland</name>
            </trkpt>
            <trkpt lon="11.436082124710083" lat="53.70491421422108">
                <ele>43.0</ele>
                <time>2012-05-26T03:59:00.645Z</time>
                <name>290 Ringstraße 7, 19069 Seehof, Deutschland</name>
            </trkpt>
            <trkpt lon="11.43667221069336" lat="53.70448870373294">
                <ele>42.0</ele>
                <time>2012-05-26T04:02:21.582Z</time>
                <name>291 Ringstraße 7, 19069 Seehof, Deutschland</name>
            </trkpt>
            <trkpt lon="11.436779499053955" lat="53.70422196362099">
                <ele>43.0</ele>
                <time>2012-05-26T04:04:01.580Z</time>
                <name>292 Ringstraße 11A, 19069 Seehof, Deutschland</name>
            </trkpt>
            <trkpt lon="11.43714427947998" lat="53.703707531487524">
                <ele>42.0</ele>
                <time>2012-05-26T04:07:25.094Z</time>
                <name>293 Ringstraße 11A, 19069 Seehof, Deutschland</name>
            </trkpt>
            <trkpt lon="11.437519788742065" lat="53.70308512370913">
                <ele>42.0</ele>
                <time>2012-05-26T04:11:26.158Z</time>
                <name>294 Ringstraße 16A, 19069 Seehof, Deutschland</name>
            </trkpt>
            <trkpt lon="11.437680721282959" lat="53.70279932113505">
                <ele>42.0</ele>
                <time>2012-05-26T04:13:16.038Z</time>
                <name>295 Ringstraße 11A, 19069 Seehof, Deutschland</name>
            </trkpt>
            <trkpt lon="11.438335180282593" lat="53.701884739854584">
                <ele>41.0</ele>
                <time>2012-05-26T04:19:18.355Z</time>
                <name>296 Ringstraße 11A, 19069 Seehof, Deutschland</name>
            </trkpt>
            <trkpt lon="11.438120603561401" lat="53.7018466318699">
                <ele>41.0</ele>
                <time>2012-05-26T04:20:06.818Z</time>
                <name>297 Siedlung 35, 19069 Seehof, Deutschland</name>
            </trkpt>
            <trkpt lon="11.43765926361084" lat="53.70168784822894">
                <ele>42.0</ele>
                <time>2012-05-26T04:22:02.215Z</time>
                <name>298 Siedlung 35, 19069 Seehof, Deutschland</name>
            </trkpt>
            <trkpt lon="11.43540620803833" lat="53.70152906398893">
                <ele>47.0</ele>
                <time>2012-05-26T04:30:13.141Z</time>
                <name>299 Siedlung 9-35, 19069 Seehof, Deutschland</name>
            </trkpt>
            <trkpt lon="11.435481309890747" lat="53.70063986117378">
                <ele>46.0</ele>
                <time>2012-05-26T04:35:37.785Z</time>
                <name>300 Siedlung 13, 19069 Seehof, Deutschland</name>
            </trkpt>
            <trkpt lon="11.432756185531616" lat="53.7005001275947">
                <ele>48.0</ele>
                <time>2012-05-26T04:45:29.637Z</time>
                <name>301 NWM42, 19069 Seehof, Deutschland</name>
            </trkpt>
            <trkpt lon="11.431887149810791" lat="53.696326960996245">
                <ele>52.0</ele>
                <time>2012-05-26T05:11:02.905Z</time>
                <name>302 Dorfstraße 20, 19069 Seehof, Deutschland</name>
            </trkpt>
            <trkpt lon="11.43114686012268" lat="53.692903003933885">
                <ele>53.0</ele>
                <time>2012-05-26T05:32:01.643Z</time>
                <name>303 NWM42 10, 19069 Seehof, Deutschland</name>
            </trkpt>
            <trkpt lon="11.43064260482788" lat="53.690012433793655">
                <ele>58.0</ele>
                <time>2012-05-26T05:49:41.285Z</time>
                <name>304 Dorfstraße, 19069 Seehof, Deutschland</name>
            </trkpt>
            <trkpt lon="11.430449485778809" lat="53.68933264451974">
                <ele>59.0</ele>
                <time>2012-05-26T05:53:52.660Z</time>
                <name>305 Zum Tütenhof 5, 19069 Seehof, Deutschland</name>
            </trkpt>
            <trkpt lon="11.429859399795532" lat="53.686435475584744">
                <ele>59.0</ele>
                <time>2012-05-26T06:11:36.764Z</time>
                <name>306 Ausbau, 19055, Deutschland</name>
            </trkpt>
            <trkpt lon="11.429558992385864" lat="53.68489150808849">
                <ele>55.0</ele>
                <time>2012-05-26T06:21:03.492Z</time>
                <name>307 Seehofer Straße 19, 19055 Schwerin, Deutschland</name>
            </trkpt>
            <trkpt lon="11.429054737091064" lat="53.68238800015429">
                <ele>54.0</ele>
                <time>2012-05-26T06:36:22.862Z</time>
                <name>308 Henningshof, 19055 Schwerin, Deutschland</name>
            </trkpt>
            <trkpt lon="11.428614854812622" lat="53.68005591852886">
                <ele>57.0</ele>
                <time>2012-05-26T06:50:38.535Z</time>
                <name>309 Seehofer Straße 1, 19055 Schwerin, Deutschland</name>
            </trkpt>
            <trkpt lon="11.42815351486206" lat="53.67812406920712">
                <ele>63.0</ele>
                <time>2012-05-26T07:02:29.999Z</time>
                <name>310 Schweriner Innensee und Ziegelaußensee, Carlshöhe 4, 19055 Schwerin, Deutschland</name>
            </trkpt>
            <trkpt lon="11.427949666976929" lat="53.677609318089644">
                <ele>62.0</ele>
                <time>2012-05-26T07:05:42.813Z</time>
                <name>311 Schweriner Innensee und Ziegelaußensee, Carlshöhe 4, 19055 Schwerin, Deutschland</name>
            </trkpt>
            <trkpt lon="11.426039934158325" lat="53.67475583053037">
                <ele>60.0</ele>
                <time>2012-05-26T07:24:22.431Z</time>
                <name>312 Carlshöhe 37, 19055 Schwerin, Deutschland</name>
            </trkpt>
            <trkpt lon="11.423593759536743" lat="53.67119664420684">
                <ele>53.0</ele>
                <time>2012-05-26T07:47:44.145Z</time>
                <name>313 SN42, 19055 Schwerin, Deutschland</name>
            </trkpt>
            <trkpt lon="11.423057317733765" lat="53.67038942976561">
                <ele>55.0</ele>
                <time>2012-05-26T07:53:00.572Z</time>
                <name>314 Schweriner Innensee und Ziegelaußensee, Wendenhof 1, 19055 Schwerin, Deutschland</name>
            </trkpt>
            <trkpt lon="11.422563791275024" lat="53.669416938286">
                <ele>59.0</ele>
                <time>2012-05-26T07:59:10.926Z</time>
                <name>315 Schweriner Innensee und Ziegelaußensee, SN42, 19055 Schwerin, Deutschland</name>
            </trkpt>
            <trkpt lon="11.422080993652344" lat="53.6690228503806">
                <ele>58.0</ele>
                <time>2012-05-26T08:02:08.628Z</time>
                <name>316 Schweriner Innensee und Ziegelaußensee, Wickendorfer Straße, 19055 Schwerin, Deutschland</name>
            </trkpt>
            <trkpt lon="11.418701410293579" lat="53.667217626412416">
                <ele>53.0</ele>
                <time>2012-05-26T08:18:32.925Z</time>
                <name>317 Schweriner Innensee und Ziegelaußensee, Wickendorfer Straße, 19055 Schwerin, Deutschland</name>
            </trkpt>
            <trkpt lon="11.415225267410278" lat="53.66482749260283">
                <ele>50.0</ele>
                <time>2012-05-26T08:37:44.531Z</time>
                <name>318 Wickendorfer Straße 4, 19055 Schwerin, Deutschland</name>
            </trkpt>
            <trkpt lon="11.41445279121399" lat="53.66441429083378">
                <ele>50.0</ele>
                <time>2012-05-26T08:41:29.664Z</time>
                <name>319 Wickendorfer Straße 4, 19055 Schwerin, Deutschland</name>
            </trkpt>
            <trkpt lon="11.413573026657104" lat="53.664115511646145">
                <ele>50.0</ele>
                <time>2012-05-26T08:45:09.134Z</time>
                <name>320 Wickendorfer Straße 4, 19055 Schwerin, Deutschland</name>
            </trkpt>
            <trkpt lon="11.412070989608765" lat="53.663873943945795">
                <ele>51.0</ele>
                <time>2012-05-26T08:50:46.131Z</time>
                <name>321 Schweriner Innensee und Ziegelaußensee, Wickendorfer Straße, 19055 Schwerin, Deutschland</name>
            </trkpt>
            <trkpt lon="11.405783891677856" lat="53.66282501550317">
                <ele>50.0</ele>
                <time>2012-05-26T09:14:20.389Z</time>
                <name>322 Wickendorfer Straße 2, 19055 Schwerin, Deutschland</name>
            </trkpt>
            <trkpt lon="11.40418529510498" lat="53.66255801136749">
                <ele>49.0</ele>
                <time>2012-05-26T09:20:20.021Z</time>
                <name>323 An der Chaussee 24, 19055 Schwerin, Deutschland</name>
            </trkpt>
            <trkpt lon="11.404303312301636" lat="53.661140318217754">
                <ele>50.0</ele>
                <time>2012-05-26T09:28:57.583Z</time>
                <name>324 Seitenweg 1, 19055 Schwerin, Deutschland</name>
            </trkpt>
            <trkpt lon="11.404743194580078" lat="53.655055775214436">
                <ele>52.0</ele>
                <time>2012-05-26T10:05:58.221Z</time>
                <name>325 Wismarsche Straße, 19055 Schwerin, Deutschland</name>
            </trkpt>
            <trkpt lon="11.404807567596436" lat="53.65431819516853">
                <ele>52.0</ele>
                <time>2012-05-26T10:10:27.524Z</time>
                <name>326 Wismarsche Straße 380, 19055 Schwerin, Deutschland</name>
            </trkpt>
            <trkpt lon="11.40495777130127" lat="53.65307826859764">
                <ele>57.0</ele>
                <time>2012-05-26T10:18:00.804Z</time>
                <name>327 Wismarsche Straße 390, 19055 Schwerin, Deutschland</name>
            </trkpt>
            <trkpt lon="11.40519380569458" lat="53.65197820065051">
                <ele>59.0</ele>
                <time>2012-05-26T10:24:45.164Z</time>
                <name>328 Wismarsche Straße 391, 19055 Schwerin, Deutschland</name>
            </trkpt>
            <trkpt lon="11.40707939863205" lat="53.647261254475424">
                <ele>53.0</ele>
                <time>2012-05-26T10:54:12.930Z</time>
                <name>329 Wismarsche Straße 323A, 19055 Schwerin, Deutschland</name>
            </trkpt>
            <trkpt lon="11.407401263713837" lat="53.64659985415364">
                <ele>52.0</ele>
                <time>2012-05-26T10:58:23.972Z</time>
                <name>330 Wismarsche Straße 298, 19055 Schwerin, Deutschland</name>
            </trkpt>
            <trkpt lon="11.411263644695282" lat="53.646498099337265">
                <ele>46.0</ele>
                <time>2012-05-26T11:12:21.574Z</time>
                <name>331 Möwenburgstraße 37, 19055 Schwerin, Deutschland</name>
            </trkpt>
            <trkpt lon="11.411177814006805" lat="53.64625643066428">
                <ele>45.0</ele>
                <time>2012-05-26T11:13:51.633Z</time>
                <name>332 Möwenburgstraße 37, 19055 Schwerin, Deutschland</name>
            </trkpt>
            <trkpt lon="11.410711109638214" lat="53.64558229494101">
                <ele>46.0</ele>
                <time>2012-05-26T11:18:17.423Z</time>
                <name>333 Möwenburgstraße 39, 19055 Schwerin, Deutschland</name>
            </trkpt>
            <trkpt lon="11.410598456859589" lat="53.64544555855046">
                <ele>47.0</ele>
                <time>2012-05-26T11:19:12.933Z</time>
                <name>334 Möwenburgstraße 39, 19055 Schwerin, Deutschland</name>
            </trkpt>
            <trkpt lon="11.41032487154007" lat="53.644854089056885">
                <ele>50.0</ele>
                <time>2012-05-26T11:22:56.592Z</time>
                <name>335 Dr.-Hans-Wolf-Straße 38, 19055 Schwerin, Deutschland</name>
            </trkpt>
            <trkpt lon="11.410271227359772" lat="53.64451701133358">
                <ele>50.0</ele>
                <time>2012-05-26T11:25:00.045Z</time>
                <name>336 Dr.-Hans-Wolf-Straße 34, 19055 Schwerin, Deutschland</name>
            </trkpt>
            <trkpt lon="11.410287320613861" lat="53.64409725040226">
                <ele>50.0</ele>
                <time>2012-05-26T11:27:33.137Z</time>
                <name>337 Dr.-Hans-Wolf-Straße 28, 19055 Schwerin, Deutschland</name>
            </trkpt>
            <trkpt lon="11.41033560037613" lat="53.64328951685558">
                <ele>48.0</ele>
                <time>2012-05-26T11:32:27.836Z</time>
                <name>338 Dr.-Hans-Wolf-Straße 22, 19055 Schwerin, Deutschland</name>
            </trkpt>
            <trkpt lon="11.410432159900665" lat="53.64304464969325">
                <ele>48.0</ele>
                <time>2012-05-26T11:33:59.536Z</time>
                <name>339 Dr.-Hans-Wolf-Straße 20, 19055 Schwerin, Deutschland</name>
            </trkpt>
            <trkpt lon="11.41055017709732" lat="53.64281568170979">
                <ele>48.0</ele>
                <time>2012-05-26T11:35:26.848Z</time>
                <name>340 Dr.-Hans-Wolf-Straße 14, 19055 Schwerin, Deutschland</name>
            </trkpt>
            <trkpt lon="11.410711109638214" lat="53.642710737635284">
                <ele>48.0</ele>
                <time>2012-05-26T11:36:18.615Z</time>
                <name>341 Dr.-Hans-Wolf-Straße 14, 19055 Schwerin, Deutschland</name>
            </trkpt>
            <trkpt lon="11.411086618900299" lat="53.642275057927606">
                <ele>47.0</ele>
                <time>2012-05-26T11:39:17.089Z</time>
                <name>342 Dr.-Hans-Wolf-Straße 14, 19055 Schwerin, Deutschland</name>
            </trkpt>
            <trkpt lon="11.411210000514984" lat="53.642077887529574">
                <ele>47.0</ele>
                <time>2012-05-26T11:40:33.787Z</time>
                <name>343 Dr.-Hans-Wolf-Straße 14, 19055 Schwerin, Deutschland</name>
            </trkpt>
            <trkpt lon="11.41155332326889" lat="53.64136870251032">
                <ele>47.0</ele>
                <time>2012-05-26T11:45:02.845Z</time>
                <name>344 Dr.-Hans-Wolf-Straße 23-25, 19055 Schwerin, Deutschland</name>
            </trkpt>
            <trkpt lon="11.411741077899933" lat="53.64101251540136">
                <ele>47.0</ele>
                <time>2012-05-26T11:47:18.933Z</time>
                <name>345 Dr.-Hans-Wolf-Straße 17, 19055 Schwerin, Deutschland</name>
            </trkpt>
            <trkpt lon="11.411848366260529" lat="53.640522753215144">
                <ele>45.0</ele>
                <time>2012-05-26T11:50:19.007Z</time>
                <name>346 Dr.-Hans-Wolf-Straße 17B, 19055 Schwerin, Deutschland</name>
            </trkpt>
            <trkpt lon="11.411853730678558" lat="53.64003616567126">
                <ele>42.0</ele>
                <time>2012-05-26T11:53:16.420Z</time>
                <name>347 Dr.-Hans-Wolf-Straße 13, 19055 Schwerin, Deutschland</name>
            </trkpt>
            <trkpt lon="11.411585509777069" lat="53.63948914552105">
                <ele>44.0</ele>
                <time>2012-05-26T11:56:44.157Z</time>
                <name>348 Dr.-Hans-Wolf-Straße 11, 19055 Schwerin, Deutschland</name>
            </trkpt>
            <trkpt lon="11.411252915859222" lat="53.63905025213184">
                <ele>44.0</ele>
                <time>2012-05-26T11:59:39.654Z</time>
                <name>349 Dr.-Hans-Wolf-Straße 9, 19055 Schwerin, Deutschland</name>
            </trkpt>
            <trkpt lon="11.411140263080597" lat="53.63875129315058">
                <ele>43.0</ele>
                <time>2012-05-26T12:01:31.352Z</time>
                <name>350 Dr.-Hans-Wolf-Straße 7B, 19055 Schwerin, Deutschland</name>
            </trkpt>
            <trkpt lon="11.41106516122818" lat="53.63827740701996">
                <ele>42.0</ele>
                <time>2012-05-26T12:04:24.892Z</time>
                <name>351 Dr.-Hans-Wolf-Straße 3, 19055 Schwerin, Deutschland</name>
            </trkpt>
            <trkpt lon="11.411113440990448" lat="53.63763812937537">
                <ele>42.0</ele>
                <time>2012-05-26T12:08:18.202Z</time>
                <name>352 Knaudtstraße, 19055 Schwerin, Deutschland</name>
            </trkpt>
            <trkpt lon="11.410877406597137" lat="53.63767311496968">
                <ele>42.0</ele>
                <time>2012-05-26T12:09:10.911Z</time>
                <name>353 Dr.-Hans-Wolf-Straße 1A, 19055 Schwerin, Deutschland</name>
            </trkpt>
            <trkpt lon="11.410877406597137" lat="53.63753317241829">
                <ele>42.0</ele>
                <time>2012-05-26T12:10:01.932Z</time>
                <name>354 Spieltordamm, 19055 Schwerin, Deutschland</name>
            </trkpt>
            <trkpt lon="11.41130119562149" lat="53.63730417451464">
                <ele>42.0</ele>
                <time>2012-05-26T12:12:06.036Z</time>
                <name>355 Spieltordamm, 19055 Schwerin, Deutschland</name>
            </trkpt>
            <trkpt lon="11.411735713481903" lat="53.63714196691408">
                <ele>42.0</ele>
                <time>2012-05-26T12:13:57.216Z</time>
                <name>356 Spieltordamm, 19055 Schwerin, Deutschland</name>
            </trkpt>
            <trkpt lon="11.412738859653473" lat="53.63683663326808">
                <ele>40.0</ele>
                <time>2012-05-26T12:18:01.417Z</time>
                <name>357 Spieltordamm 9, 19055 Schwerin, Deutschland</name>
            </trkpt>
            <trkpt lon="11.41407459974289" lat="53.63620051440748">
                <ele>41.0</ele>
                <time>2012-05-26T12:24:12.293Z</time>
                <name>358 Spieltordamm 5-7, 19055 Schwerin, Deutschland</name>
            </trkpt>
            <trkpt lon="11.414423286914825" lat="53.63596514799792">
                <ele>41.0</ele>
                <time>2012-05-26T12:26:06.623Z</time>
                <name>359 August-Bebel-Straße 33, 19055 Schwerin, Deutschland</name>
            </trkpt>
            <trkpt lon="11.41429454088211" lat="53.63589199330586">
                <ele>42.0</ele>
                <time>2012-05-26T12:26:45.217Z</time>
                <name>360 August-Bebel-Straße 33, 19055 Schwerin, Deutschland</name>
            </trkpt>
            <trkpt lon="11.414197981357574" lat="53.63569479306921">
                <ele>42.0</ele>
                <time>2012-05-26T12:28:00.094Z</time>
                <name>361 August-Bebel-Straße 33, 19055 Schwerin, Deutschland</name>
            </trkpt>
            <trkpt lon="11.414224803447723" lat="53.63494415147799">
                <ele>42.0</ele>
                <time>2012-05-26T12:32:33.821Z</time>
                <name>362 August-Bebel-Straße 28, 19055 Schwerin, Deutschland</name>
            </trkpt>
            <trkpt lon="11.414240896701813" lat="53.633242435700765">
                <ele>41.0</ele>
                <time>2012-05-26T12:42:54.234Z</time>
                <name>363 August-Bebel-Straße 100, 19055 Schwerin, Deutschland</name>
            </trkpt>
            <trkpt lon="11.41407459974289" lat="53.631527927403745">
                <ele>43.0</ele>
                <time>2012-05-26T12:53:20.338Z</time>
                <name>364 August-Bebel-Straße 5, Schwerin, Deutschland</name>
            </trkpt>
            <trkpt lon="11.413092911243439" lat="53.630853556255744">
                <ele>43.0</ele>
                <time>2012-05-26T12:58:45.453Z</time>
                <name>365 August-Bebel-Straße 1, 19055 Schwerin, Deutschland</name>
            </trkpt>
            <trkpt lon="11.41306608915329" lat="53.63073903932989">
                <ele>43.0</ele>
                <time>2012-05-26T12:59:27.605Z</time>
                <name>366 Arsenalstraße 2, 19053 Schwerin, Deutschland</name>
            </trkpt>
            <trkpt lon="11.41358107328415" lat="53.630713591081935">
                <ele>44.0</ele>
                <time>2012-05-26T13:01:19.585Z</time>
                <name>367 Bischofstraße 6, 19055 Schwerin, Deutschland</name>
            </trkpt>
            <trkpt lon="11.413473784923553" lat="53.62997876630227">
                <ele>48.0</ele>
                <time>2012-05-26T13:05:48.485Z</time>
                <name>368 Bischofstraße 6, 19055 Schwerin, Deutschland</name>
            </trkpt>
            <trkpt lon="11.413538157939911" lat="53.629444340242955">
                <ele>48.0</ele>
                <time>2012-05-26T13:09:03.817Z</time>
                <name>369 Bischofstraße 11, 19055 Schwerin, Deutschland</name>
            </trkpt>
            <trkpt lon="11.413650810718536" lat="53.629113501671384">
                <ele>48.0</ele>
                <time>2012-05-26T13:11:06.874Z</time>
                <name>370 Schmiedestraße 11, Schwerin, Deutschland</name>
            </trkpt>
            <trkpt lon="11.412867605686188" lat="53.62782193395752">
                <ele>44.0</ele>
                <time>2012-05-26T13:19:27.386Z</time>
                <name>371 Schloßstraße 30, 19053 Schwerin, Deutschland</name>
            </trkpt>
            <trkpt lon="11.413446962833405" lat="53.62778694019359">
                <ele>45.0</ele>
                <time>2012-05-26T13:21:33.583Z</time>
                <name>372 Schloßstraße 24, Schwerin, Deutschland</name>
            </trkpt>
            <trkpt lon="11.413838565349579" lat="53.627726496351116">
                <ele>46.0</ele>
                <time>2012-05-26T13:23:01.260Z</time>
                <name>373 Schloßstraße 27, Schwerin, Deutschland</name>
            </trkpt>
            <trkpt lon="11.414181888103485" lat="53.62759924587348">
                <ele>47.0</ele>
                <time>2012-05-26T13:24:28.938Z</time>
                <name>374 Schloßstraße 23-25, Schwerin, Deutschland</name>
            </trkpt>
            <trkpt lon="11.414455473423004" lat="53.62741791327988">
                <ele>48.0</ele>
                <time>2012-05-26T13:25:57.735Z</time>
                <name>375 Puschkinstraße 64, 19055 Schwerin, Deutschland</name>
            </trkpt>
            <trkpt lon="11.416080892086029" lat="53.62625036721949">
                <ele>47.0</ele>
                <time>2012-05-26T13:35:10.219Z</time>
                <name>376 Schloßstraße 3, 19053 Schwerin, Deutschland</name>
            </trkpt>
            <trkpt lon="11.417582929134369" lat="53.625225954153954">
                <ele>41.0</ele>
                <time>2012-05-26T13:43:25.624Z</time>
                <name>377 Lennéstraße 1, 19061 Schwerin, Deutschland</name>
            </trkpt>
            <trkpt lon="11.417695581912994" lat="53.62512732922363">
                <ele>41.0</ele>
                <time>2012-05-26T13:44:09.083Z</time>
                <name>378 Lennéstraße 1, 19061 Schwerin, Deutschland</name>
            </trkpt>
            <trkpt lon="11.417711675167084" lat="53.62496507480449">
                <ele>41.0</ele>
                <time>2012-05-26T13:45:08.335Z</time>
                <name>379 Lennéstraße 1, 19061 Schwerin, Deutschland</name>
            </trkpt>
            <trkpt lon="11.417529284954071" lat="53.62441149620921">
                <ele>43.0</ele>
                <time>2012-05-26T13:48:33.974Z</time>
                <name>380 Lennéstraße 1, 19061 Schwerin, Deutschland</name>
            </trkpt>
            <trkpt lon="11.41756147146225" lat="53.62420151622188">
                <ele>44.0</ele>
                <time>2012-05-26T13:49:50.838Z</time>
                <name>381 Lennéstraße 1, 19061 Schwerin, Deutschland</name>
            </trkpt>
            <trkpt lon="11.417652666568756" lat="53.62407425511504">
                <ele>45.0</ele>
                <time>2012-05-26T13:50:41.264Z</time>
                <name>382 Lennéstraße 1, 19061 Schwerin, Deutschland</name>
            </trkpt>
            <trkpt lon="11.417894065380096" lat="53.62387063654594">
                <ele>46.0</ele>
                <time>2012-05-26T13:52:12.074Z</time>
                <name>383 Lennéstraße 1, 19061 Schwerin, Deutschland</name>
            </trkpt>
            <trkpt lon="11.417904794216156" lat="53.62368292480734">
                <ele>44.0</ele>
                <time>2012-05-26T13:53:20.541Z</time>
                <name>384 Lennéstraße 1, 19061 Schwerin, Deutschland</name>
            </trkpt>
            <trkpt lon="11.41728788614273" lat="53.622811167825446">
                <ele>40.0</ele>
                <time>2012-05-26T13:59:05.305Z</time>
                <name>385 Burgseestraße, 19053 Schwerin, Deutschland</name>
            </trkpt>
            <trkpt lon="11.416923105716705" lat="53.62274753522384">
                <ele>40.0</ele>
                <time>2012-05-26T14:00:27.692Z</time>
                <name>386 Burgseestraße, 19053 Schwerin, Deutschland</name>
            </trkpt>
            <trkpt lon="11.416284739971161" lat="53.62273162705845">
                <ele>39.0</ele>
                <time>2012-05-26T14:02:46.158Z</time>
                <name>387 Burgseestraße, 19053 Schwerin, Deutschland</name>
            </trkpt>
            <trkpt lon="11.415887773036957" lat="53.62275071685622">
                <ele>39.0</ele>
                <time>2012-05-26T14:04:12.468Z</time>
                <name>388 Burgseestraße, 19053 Schwerin, Deutschland</name>
            </trkpt>
            <trkpt lon="11.415742933750153" lat="53.62266481269833">
                <ele>39.0</ele>
                <time>2012-05-26T14:04:56.806Z</time>
                <name>389 Burgseestraße, 19053 Schwerin, Deutschland</name>
            </trkpt>
            <trkpt lon="11.415421068668365" lat="53.62227028765388">
                <ele>39.0</ele>
                <time>2012-05-26T14:07:36.645Z</time>
                <name>390 Burgseestraße, 19053 Schwerin, Deutschland</name>
            </trkpt>
            <trkpt lon="11.414766609668732" lat="53.622461187329435">
                <ele>39.0</ele>
                <time>2012-05-26T14:10:14.628Z</time>
                <name>391 Burgseestraße, 19053 Schwerin, Deutschland</name>
            </trkpt>
            <trkpt lon="11.413243114948273" lat="53.62051715192788">
                <ele>40.0</ele>
                <time>2012-05-26T14:23:16.424Z</time>
                <name>392 Burgseestraße 1, 19053 Schwerin, Deutschland</name>
            </trkpt>
            <trkpt lon="11.411381661891937" lat="53.621023055192516">
                <ele>40.0</ele>
                <time>2012-05-26T14:30:39.997Z</time>
                <name>393 Amt für Brand-, Katastrophenschutz und Rettungsdienst, Graf-York-Straße 21, 19061 Schwerin, Deutschland</name>
            </trkpt>
            <trkpt lon="11.411032974720001" lat="53.620501242921854">
                <ele>42.0</ele>
                <time>2012-05-26T14:34:04.672Z</time>
                <name>394 Jägerweg 1, 19053 Schwerin, Deutschland</name>
            </trkpt>
            <trkpt lon="11.410990059375763" lat="53.62041215237727">
                <ele>42.0</ele>
                <time>2012-05-26T14:34:38.453Z</time>
                <name>395 Jägerweg 1, 19053 Schwerin, Deutschland</name>
            </trkpt>
            <trkpt lon="11.410791575908661" lat="53.6204630612829">
                <ele>42.0</ele>
                <time>2012-05-26T14:35:25.300Z</time>
                <name>396 Johannes-Stelling-Straße 2, 19053 Schwerin, Deutschland</name>
            </trkpt>
            <trkpt lon="11.410630643367767" lat="53.62049806111991">
                <ele>42.0</ele>
                <time>2012-05-26T14:36:02.437Z</time>
                <name>397 Johannes-Stelling-Straße 1, 19053 Schwerin, Deutschland</name>
            </trkpt>
            <trkpt lon="11.41033560037613" lat="53.62049169751536">
                <ele>42.0</ele>
                <time>2012-05-26T14:37:06.419Z</time>
                <name>398 Johannes-Stelling-Straße 1, 19053 Schwerin, Deutschland</name>
            </trkpt>
            <trkpt lon="11.409874260425568" lat="53.62036760703448">
                <ele>42.0</ele>
                <time>2012-05-26T14:38:56.153Z</time>
                <name>399 Johannes-Stelling-Straße 1, 19053 Schwerin, Deutschland</name>
            </trkpt>
            <trkpt lon="11.40981525182724" lat="53.620345334345444">
                <ele>42.0</ele>
                <time>2012-05-26T14:39:11.300Z</time>
                <name>400 Johannes-Stelling-Straße 1, 19053 Schwerin, Deutschland</name>
            </trkpt>
            <trkpt lon="11.409632861614227" lat="53.62040897056863">
                <ele>42.0</ele>
                <time>2012-05-26T14:39:57.129Z</time>
                <name>401 Lutherstraße 4, 19053 Schwerin, Deutschland</name>
            </trkpt>
            <trkpt lon="11.409359276294708" lat="53.62029760711509">
                <ele>42.0</ele>
                <time>2012-05-26T14:41:08.981Z</time>
                <name>402 Lutherstraße 1, 19053 Schwerin, Deutschland</name>
            </trkpt>
            <trkpt lon="11.408382952213287" lat="53.61965487515644">
                <ele>43.0</ele>
                <time>2012-05-26T14:46:24.653Z</time>
                <name>403 Lutherstraße 10-12, 19053 Schwerin, Deutschland</name>
            </trkpt>
            <trkpt lon="11.408163011074066" lat="53.61901213341115">
                <ele>43.0</ele>
                <time>2012-05-26T14:50:23.728Z</time>
                <name>404 Lutherstraße 18, 19053 Schwerin, Deutschland</name>
            </trkpt>
            <trkpt lon="11.40807718038559" lat="53.618980314258636">
                <ele>43.0</ele>
                <time>2012-05-26T14:50:45.648Z</time>
                <name>405 Lutherstraße 18, 19053 Schwerin, Deutschland</name>
            </trkpt>
            <trkpt lon="11.407766044139862" lat="53.619409870793916">
                <ele>43.0</ele>
                <time>2012-05-26T14:53:36.118Z</time>
                <name>406 Lutherstraße 17, 19053 Schwerin, Deutschland</name>
            </trkpt>
            <trkpt lon="11.407283246517181" lat="53.61926032197765">
                <ele>43.0</ele>
                <time>2012-05-26T14:55:34.092Z</time>
                <name>407 Ostorfer Ufer 3, 19053 Schwerin, Deutschland</name>
            </trkpt>
            <trkpt lon="11.407192051410675" lat="53.61929532281191">
                <ele>44.0</ele>
                <time>2012-05-26T14:55:57.614Z</time>
                <name>408 Ostorfer Ufer 3, 19053 Schwerin, Deutschland</name>
            </trkpt>
            <trkpt lon="11.406526863574982" lat="53.61906145305129">
                <ele>44.0</ele>
                <time>2012-05-26T14:58:45.079Z</time>
                <name>409 Ostorfer Ufer 4-5, 19053 Schwerin, Deutschland</name>
            </trkpt>
            <trkpt lon="11.405695378780365" lat="53.618725760176176">
                <ele>44.0</ele>
                <time>2012-05-26T15:02:22.879Z</time>
                <name>410 Ostorfer Ufer 9, 19053 Schwerin, Deutschland</name>
            </trkpt>
            <trkpt lon="11.405212581157684" lat="53.618601664503835">
                <ele>43.0</ele>
                <time>2012-05-26T15:04:16.861Z</time>
                <name>411 Ostorfer Ufer 11, 19053 Schwerin, Deutschland</name>
            </trkpt>
            <trkpt lon="11.404662728309631" lat="53.61851097897416">
                <ele>43.0</ele>
                <time>2012-05-26T15:06:20.515Z</time>
                <name>412 Schweriner Seenlandschaft (Stadt Schwerin), Ostorfer Ufer 14, 19053 Schwerin, Deutschland</name>
            </trkpt>
            <trkpt lon="11.403742730617523" lat="53.61857143601559">
                <ele>42.0</ele>
                <time>2012-05-26T15:09:41.095Z</time>
                <name>413 Ostorfer Ufer 15, 19053 Schwerin, Deutschland</name>
            </trkpt>
            <trkpt lon="11.402865648269653" lat="53.61878621691002">
                <ele>41.0</ele>
                <time>2012-05-26T15:13:06.650Z</time>
                <name>414 Ostorfer Ufer 16, 19053 Schwerin, Deutschland</name>
            </trkpt>
            <trkpt lon="11.401951014995575" lat="53.61906781687147">
                <ele>42.0</ele>
                <time>2012-05-26T15:16:49.849Z</time>
                <name>415 Ostorfer Ufer, 19053 Schwerin, Deutschland</name>
            </trkpt>
            <trkpt lon="11.400620639324188" lat="53.61950691814769">
                <ele>44.0</ele>
                <time>2012-05-26T15:22:19.582Z</time>
                <name>416 Ostorfer Ufer, 19053 Schwerin, Deutschland</name>
            </trkpt>
            <trkpt lon="11.399630904197693" lat="53.61983942295917">
                <ele>43.0</ele>
                <time>2012-05-26T15:26:25.924Z</time>
                <name>417 Ostorfer Ufer, 19053 Schwerin, Deutschland</name>
            </trkpt>
            <trkpt lon="11.398437321186066" lat="53.62019260701952">
                <ele>42.0</ele>
                <time>2012-05-26T15:31:14.828Z</time>
                <name>418 Auf dem Dwang, 19053 Schwerin, Deutschland</name>
            </trkpt>
            <trkpt lon="11.396101117134094" lat="53.61858575477588">
                <ele>41.0</ele>
                <time>2012-05-26T15:44:08.954Z</time>
                <name>419 Auf dem Dwang 63, 19053 Schwerin, Deutschland</name>
            </trkpt>
            <trkpt lon="11.395328640937805" lat="53.618049593437604">
                <ele>42.0</ele>
                <time>2012-05-26T15:48:26.264Z</time>
                <name>420 Auf dem Dwang 63, 19053 Schwerin, Deutschland</name>
            </trkpt>
            <trkpt lon="11.394738554954529" lat="53.617713892515816">
                <ele>43.0</ele>
                <time>2012-05-26T15:51:23.243Z</time>
                <name>421 Auf dem Dwang 1, 19053 Schwerin, Deutschland</name>
            </trkpt>
            <trkpt lon="11.393893659114838" lat="53.617137944431136">
                <ele>45.0</ele>
                <time>2012-05-26T15:56:01.787Z</time>
                <name>422 Auf dem Dwang 69, 19053 Schwerin, Deutschland</name>
            </trkpt>
            <trkpt lon="11.393249928951263" lat="53.61665745134285">
                <ele>45.0</ele>
                <time>2012-05-26T15:59:45.681Z</time>
                <name>423 Rogahner Straße 10, 19061 Schwerin, Deutschland</name>
            </trkpt>
            <trkpt lon="11.392627656459808" lat="53.61622150255081">
                <ele>42.0</ele>
                <time>2012-05-26T16:03:14.081Z</time>
                <name>424 Rogahner Straße 10, 19061 Schwerin, Deutschland</name>
            </trkpt>
            <trkpt lon="11.391568183898926" lat="53.61548483432479">
                <ele>40.0</ele>
                <time>2012-05-26T16:09:08.349Z</time>
                <name>425 Schweriner Seenlandschaft (Stadt Schwerin), Rogahner Straße 12, 19061 Schwerin, Deutschland</name>
            </trkpt>
            <trkpt lon="11.390409469604492" lat="53.6146431393438">
                <ele>41.0</ele>
                <time>2012-05-26T16:15:45.902Z</time>
                <name>426 Rogahner Straße 14, 19061 Schwerin, Deutschland</name>
            </trkpt>
            <trkpt lon="11.390320956707" lat="53.614595405666265">
                <ele>41.0</ele>
                <time>2012-05-26T16:16:11.870Z</time>
                <name>427 Rogahner Straße 14, 19061 Schwerin, Deutschland</name>
            </trkpt>
            <trkpt lon="11.390251219272614" lat="53.61449675589504">
                <ele>41.0</ele>
                <time>2012-05-26T16:16:50.979Z</time>
                <name>428 Rogahner Straße 14, 19061 Schwerin, Deutschland</name>
            </trkpt>
            <trkpt lon="11.390256583690643" lat="53.61445220430987">
                <ele>41.0</ele>
                <time>2012-05-26T16:17:07.302Z</time>
                <name>429 Rogahner Straße 14, 19061 Schwerin, Deutschland</name>
            </trkpt>
            <trkpt lon="11.38969600200653" lat="53.61284831593425">
                <ele>40.0</ele>
                <time>2012-05-26T16:27:05.976Z</time>
                <name>430 Rogahner Straße 20, 19061 Schwerin, Deutschland</name>
            </trkpt>
            <trkpt lon="11.388939619064331" lat="53.61204157523927">
                <ele>39.0</ele>
                <time>2012-05-26T16:32:43.529Z</time>
                <name>431 Rogahner Straße 22, 19061 Schwerin, Deutschland</name>
            </trkpt>
            <trkpt lon="11.388655304908752" lat="53.611812438976706">
                <ele>39.0</ele>
                <time>2012-05-26T16:34:27.595Z</time>
                <name>432 Rogahner Straße 22, 19061 Schwerin, Deutschland</name>
            </trkpt>
            <trkpt lon="11.38795793056488" lat="53.61105023371138">
                <ele>41.0</ele>
                <time>2012-05-26T16:39:44.704Z</time>
                <name>433 Am Erlenbruch 5, 19061 Schwerin, Deutschland</name>
            </trkpt>
            <trkpt lon="11.388502418994904" lat="53.61081154447371">
                <ele>41.0</ele>
                <time>2012-05-26T16:42:11.710Z</time>
                <name>434 Am Erlenbruch 13, 19061 Schwerin, Deutschland</name>
            </trkpt>
            <trkpt lon="11.389352679252625" lat="53.610377126598635">
                <ele>42.0</ele>
                <time>2012-05-26T16:46:15.325Z</time>
                <name>435 Am Erlenbruch 13, 19061 Schwerin, Deutschland</name>
            </trkpt>
            <trkpt lon="11.387587785720825" lat="53.609734243593785">
                <ele>45.0</ele>
                <time>2012-05-26T16:53:45.118Z</time>
                <name>436 Am Erlenbruch 5, 19061 Schwerin, Deutschland</name>
            </trkpt>
            <trkpt lon="11.387048661708832" lat="53.60951623401584">
                <ele>45.0</ele>
                <time>2012-05-26T16:56:06.806Z</time>
                <name>437 Schulzenweg 10-11, 19061 Schwerin, Deutschland</name>
            </trkpt>
            <trkpt lon="11.387558281421661" lat="53.60921229177698">
                <ele>44.0</ele>
                <time>2012-05-26T16:58:43.663Z</time>
                <name>438 Mittelstelle 1, 19061 Schwerin, Deutschland</name>
            </trkpt>
            <trkpt lon="11.387247145175934" lat="53.6091008987856">
                <ele>44.0</ele>
                <time>2012-05-26T17:00:02.590Z</time>
                <name>439 Mittelstelle 3, 19061 Schwerin, Deutschland</name>
            </trkpt>
            <trkpt lon="11.384784877300262" lat="53.60835774088086">
                <ele>45.0</ele>
                <time>2012-05-26T17:10:02.690Z</time>
                <name>440 Mittelstelle 5, 19061 Schwerin, Deutschland</name>
            </trkpt>
            <trkpt lon="11.38458639383316" lat="53.60816359469119">
                <ele>45.0</ele>
                <time>2012-05-26T17:11:25.723Z</time>
                <name>441 Mittelstelle 5, 19061 Schwerin, Deutschland</name>
            </trkpt>
            <trkpt lon="11.38445496559143" lat="53.60785327720667">
                <ele>45.0</ele>
                <time>2012-05-26T17:13:22.667Z</time>
                <name>442 Mittelstelle 9, 19061 Schwerin, Deutschland</name>
            </trkpt>
            <trkpt lon="11.384186744689941" lat="53.60685069744151">
                <ele>43.0</ele>
                <time>2012-05-26T17:19:33.657Z</time>
                <name>443 Mittelstelle 11, 19061 Schwerin, Deutschland</name>
            </trkpt>
            <trkpt lon="11.384025812149048" lat="53.60617752338627">
                <ele>42.0</ele>
                <time>2012-05-26T17:23:42.134Z</time>
                <name>444 Mittelstelle 11, 19061 Schwerin, Deutschland</name>
            </trkpt>
            <trkpt lon="11.38398826122284" lat="53.60591016050067">
                <ele>42.0</ele>
                <time>2012-05-26T17:25:20.178Z</time>
                <name>445 Mittelstelle 11, 19061 Schwerin, Deutschland</name>
            </trkpt>
            <trkpt lon="11.384001672267914" lat="53.60504599388324">
                <ele>41.0</ele>
                <time>2012-05-26T17:30:35.988Z</time>
                <name>446 Mittelstelle 11, 19061 Schwerin, Deutschland</name>
            </trkpt>
            <trkpt lon="11.384012401103973" lat="53.60462424869002">
                <ele>42.0</ele>
                <time>2012-05-26T17:33:10.126Z</time>
                <name>447 Mittelstelle 11, 19061 Schwerin, Deutschland</name>
            </trkpt>
            <trkpt lon="11.384017765522003" lat="53.60390170185397">
                <ele>42.0</ele>
                <time>2012-05-26T17:37:34.172Z</time>
                <name>448 Mittelstelle 11, 19061 Schwerin, Deutschland</name>
            </trkpt>
            <trkpt lon="11.384001672267914" lat="53.60366615527986">
                <ele>41.0</ele>
                <time>2012-05-26T17:39:00.319Z</time>
                <name>449 Mittelstelle 11, 19061 Schwerin, Deutschland</name>
            </trkpt>
            <trkpt lon="11.384079456329346" lat="53.60299133890326">
                <ele>40.0</ele>
                <time>2012-05-26T17:43:07.496Z</time>
                <name>450 Mittelstelle 11, 19061 Schwerin, Deutschland</name>
            </trkpt>
            <trkpt lon="11.384186744689941" lat="53.60253137533569">
                <ele>40.0</ele>
                <time>2012-05-26T17:45:57.190Z</time>
                <name>451 Mittelstelle, 19061 Schwerin, Deutschland</name>
            </trkpt>
            <trkpt lon="11.384615898132324" lat="53.60113553827515">
                <ele>39.0</ele>
                <time>2012-05-26T17:54:35.729Z</time>
                <name>452 Grabenstraße 10, 19061 Schwerin, Deutschland</name>
            </trkpt>
            <trkpt lon="11.38660341501236" lat="53.60150161175163">
                <ele>38.0</ele>
                <time>2012-05-26T18:02:07.974Z</time>
                <name>453 Grabenstraße 10, 19061 Schwerin, Deutschland</name>
            </trkpt>
            <trkpt lon="11.391635239124298" lat="53.602443838450995">
                <ele>40.0</ele>
                <time>2012-05-26T18:21:14.594Z</time>
                <name>454 B106, 19061 Schwerin, Deutschland</name>
            </trkpt>
            <trkpt lon="11.393464505672455" lat="53.60110688891457">
                <ele>42.0</ele>
                <time>2012-05-26T18:31:44.499Z</time>
                <name>455 Grabenstraße 22, 19061 Schwerin, Deutschland</name>
            </trkpt>
            <trkpt lon="11.393963396549225" lat="53.601329716776">
                <ele>41.0</ele>
                <time>2012-05-26T18:34:00.106Z</time>
                <name>456 Zum Schulacker 2, 19061 Schwerin, Deutschland</name>
            </trkpt>
            <trkpt lon="11.39432281255722" lat="53.60155572669177">
                <ele>40.0</ele>
                <time>2012-05-26T18:35:53.790Z</time>
                <name>457 Zum Schulacker 2, 19061 Schwerin, Deutschland</name>
            </trkpt>
            <trkpt lon="11.394639313220978" lat="53.60169578856788">
                <ele>41.0</ele>
                <time>2012-05-26T18:37:19.534Z</time>
                <name>458 Zum Schulacker 34, 19061 Schwerin, Deutschland</name>
            </trkpt>
            <trkpt lon="11.395384967327118" lat="53.60176263611775">
                <ele>41.0</ele>
                <time>2012-05-26T18:40:03.435Z</time>
                <name>459 Zum Schulacker 34, 19061 Schwerin, Deutschland</name>
            </trkpt>
            <trkpt lon="11.396243274211884" lat="53.601071873000926">
                <ele>42.0</ele>
                <time>2012-05-26T18:45:17.312Z</time>
                <name>460 Zum Schulacker 46, 19061 Schwerin, Deutschland</name>
            </trkpt>
            <trkpt lon="11.396892368793488" lat="53.60054663081269">
                <ele>43.0</ele>
                <time>2012-05-26T18:49:15.521Z</time>
                <name>461 Zum Schulacker 96, 19061 Schwerin, Deutschland</name>
            </trkpt>
            <trkpt lon="11.397493183612823" lat="53.60020601572089">
                <ele>44.0</ele>
                <time>2012-05-26T18:52:15.927Z</time>
                <name>462 Zum Schulacker 130, 19061 Schwerin, Deutschland</name>
            </trkpt>
            <trkpt lon="11.399408280849457" lat="53.600186915727896">
                <ele>44.0</ele>
                <time>2012-05-26T18:59:12.250Z</time>
                <name>463 Zum Schulacker 101, 19061 Schwerin, Deutschland</name>
            </trkpt>
            <trkpt lon="11.3995960354805" lat="53.600339715430195">
                <ele>43.0</ele>
                <time>2012-05-26T19:00:21.409Z</time>
                <name>464 Zum Schulacker 101, 19061 Schwerin, Deutschland</name>
            </trkpt>
            <trkpt lon="11.401543319225311" lat="53.600196465725475">
                <ele>44.0</ele>
                <time>2012-05-26T19:07:27.888Z</time>
                <name>465 Dorfstraße 31, 19061 Schwerin, Deutschland</name>
            </trkpt>
            <trkpt lon="11.402777135372162" lat="53.59789803737224">
                <ele>44.0</ele>
                <time>2012-05-26T19:22:09.542Z</time>
                <name>466 Dorfstraße 14, 19061 Schwerin, Deutschland</name>
            </trkpt>
            <trkpt lon="11.403946578502655" lat="53.59677424502773">
                <ele>44.0</ele>
                <time>2012-05-26T19:30:12.502Z</time>
                <name>467 Dorfstraße 8, 19061 Schwerin, Deutschland</name>
            </trkpt>
            <trkpt lon="11.404209434986115" lat="53.59634127456078">
                <ele>44.0</ele>
                <time>2012-05-26T19:33:00.716Z</time>
                <name>468 Dorfstraße 6, 19061 Schwerin, Deutschland</name>
            </trkpt>
            <trkpt lon="11.40431135892868" lat="53.59633490731493">
                <ele>44.0</ele>
                <time>2012-05-26T19:33:22.993Z</time>
                <name>469 Dorfstraße 6, 19061 Schwerin, Deutschland</name>
            </trkpt>
        </trkseg>
    </trk>
</gpx>
